ETD755 OMDB-EHAM
Flight info
| Callsign | ETD755 |
|---|---|
| Flight time | 7h 0m |
| Altitude | 34000 |
| Route | SENPA N571 ALPOB L768 VATIM L550 NOVPA J981 DATOK L550 GENIV L324 LAKTO DCT OTHON UN128 RDS UL609 LARKI/N0489F360 UL609 MES DCT FSK UL608 DISOR DCT LONTA UL608 DOLEV DCT GUBOK DCT OBUTI DCT LAMSI DCT MAPOX L604 BIGGE DCT AMSAN T281 NORKU |
| Aircraft | A35K/H-SDE2E3GHIJ3J4J5LM1ORWXY/LB1D1 |
Departure
| Time | 2026-05-05 14:41 |
|---|---|
| Airport | Dubai International Airport (OMDB) |
Arrival
| Time | 2026-05-05 21:42 |
|---|---|
| Airport | Amsterdam Airport Schiphol (EHAM) |
| Time | Latitude | Longitude | Altitude | Speed | Heading |
|---|---|---|---|---|---|
| 2026-05-05 14:14 | 25.25374 | 55.35401 | 28 ft | 0 kts | 213° |
| 2026-05-05 14:26 | 25.25377 | 55.35403 | 28 ft | 3 kts | 213° |
| 2026-05-05 14:27 | 25.25400 | 55.35418 | 27 ft | 4 kts | 207° |
| 2026-05-05 14:27 | 25.25424 | 55.35432 | 26 ft | 4 kts | 207° |
| 2026-05-05 14:27 | 25.25444 | 55.35444 | 26 ft | 4 kts | 224° |
| 2026-05-05 14:27 | 25.25454 | 55.35465 | 26 ft | 4 kts | 291° |
| 2026-05-05 14:28 | 25.25439 | 55.35488 | 27 ft | 4 kts | 308° |
| 2026-05-05 14:28 | 25.25432 | 55.35500 | 26 ft | 1 kts | 301° |
| 2026-05-05 14:28 | 25.25431 | 55.35501 | 26 ft | 0 kts | 301° |
| 2026-05-05 14:32 | 25.25431 | 55.35500 | 26 ft | 1 kts | 301° |
| 2026-05-05 14:33 | 25.25440 | 55.35484 | 27 ft | 4 kts | 299° |
| 2026-05-05 14:33 | 25.25460 | 55.35444 | 27 ft | 9 kts | 301° |
| 2026-05-05 14:33 | 25.25507 | 55.35351 | 28 ft | 18 kts | 300° |
| 2026-05-05 14:33 | 25.25591 | 55.35208 | 28 ft | 25 kts | 310° |
| 2026-05-05 14:34 | 25.25756 | 55.35214 | 28 ft | 30 kts | 29° |
| 2026-05-05 14:34 | 25.25936 | 55.35335 | 28 ft | 29 kts | 37° |
| 2026-05-05 14:34 | 25.25985 | 55.35531 | 28 ft | 28 kts | 109° |
| 2026-05-05 14:34 | 25.25887 | 55.35731 | 28 ft | 30 kts | 120° |
| 2026-05-05 14:35 | 25.25774 | 55.35916 | 28 ft | 29 kts | 123° |
| 2026-05-05 14:35 | 25.25669 | 55.36105 | 28 ft | 29 kts | 121° |
| 2026-05-05 14:35 | 25.25564 | 55.36296 | 28 ft | 29 kts | 122° |
| 2026-05-05 14:35 | 25.25494 | 55.36422 | 28 ft | 29 kts | 121° |
| 2026-05-05 14:36 | 25.25389 | 55.36613 | 28 ft | 29 kts | 121° |
| 2026-05-05 14:36 | 25.25281 | 55.36805 | 28 ft | 29 kts | 122° |
| 2026-05-05 14:36 | 25.25137 | 55.37069 | 28 ft | 32 kts | 121° |
| 2026-05-05 14:36 | 25.25054 | 55.37218 | 28 ft | 35 kts | 121° |
| 2026-05-05 14:37 | 25.24880 | 55.37539 | 28 ft | 33 kts | 121° |
| 2026-05-05 14:37 | 25.24814 | 55.37660 | 28 ft | 27 kts | 121° |
| 2026-05-05 14:37 | 25.24732 | 55.37801 | 28 ft | 11 kts | 122° |
| 2026-05-05 14:37 | 25.24728 | 55.37866 | 28 ft | 5 kts | 60° |
| 2026-05-05 14:38 | 25.24745 | 55.37885 | 28 ft | 0 kts | 37° |
| 2026-05-05 14:38 | 25.24752 | 55.37890 | 28 ft | 2 kts | 32° |
| 2026-05-05 14:39 | 25.24759 | 55.37895 | 28 ft | 0 kts | 32° |
| 2026-05-05 14:39 | 25.24763 | 55.37898 | 28 ft | 3 kts | 32° |
| 2026-05-05 14:39 | 25.24803 | 55.37924 | 28 ft | 8 kts | 26° |
| 2026-05-05 14:39 | 25.24856 | 55.37928 | 28 ft | 7 kts | 339° |
| 2026-05-05 14:40 | 25.24864 | 55.37914 | 28 ft | 0 kts | 300° |
| 2026-05-05 14:40 | 25.24917 | 55.37813 | 28 ft | 43 kts | 302° |
| 2026-05-05 14:41 | 25.25188 | 55.37326 | 28 ft | 104 kts | 302° |
| 2026-05-05 14:41 | 25.25669 | 55.36466 | 28 ft | 158 kts | 301° |
| 2026-05-05 14:41 | 25.26333 | 55.35307 | 210 ft | 187 kts | 303° |
| 2026-05-05 14:41 | 25.26972 | 55.34102 | 882 ft | 176 kts | 294° |
| 2026-05-05 14:42 | 25.27261 | 55.32717 | 1105 ft | 202 kts | 277° |
| 2026-05-05 14:42 | 25.27371 | 55.31073 | 1365 ft | 225 kts | 273° |
| 2026-05-05 14:42 | 25.27428 | 55.29272 | 1695 ft | 243 kts | 272° |
| 2026-05-05 14:42 | 25.27489 | 55.27356 | 2106 ft | 258 kts | 272° |
| 2026-05-05 14:43 | 25.27560 | 55.25319 | 2338 ft | 269 kts | 272° |
| 2026-05-05 14:43 | 25.27661 | 55.23236 | 2585 ft | 273 kts | 274° |
| 2026-05-05 14:43 | 25.27800 | 55.21127 | 2808 ft | 278 kts | 274° |
| 2026-05-05 14:43 | 25.27963 | 55.19009 | 3095 ft | 280 kts | 275° |
| 2026-05-05 14:44 | 25.28142 | 55.16859 | 3401 ft | 282 kts | 275° |
| 2026-05-05 14:44 | 25.28323 | 55.14699 | 3684 ft | 284 kts | 275° |
| 2026-05-05 14:44 | 25.28507 | 55.12514 | 3999 ft | 285 kts | 274° |
| 2026-05-05 14:44 | 25.28690 | 55.10334 | 4388 ft | 284 kts | 274° |
| 2026-05-05 14:45 | 25.28869 | 55.08166 | 4731 ft | 284 kts | 273° |
| 2026-05-05 14:45 | 25.29047 | 55.05980 | 5014 ft | 287 kts | 274° |
| 2026-05-05 14:45 | 25.29222 | 55.03820 | 5345 ft | 287 kts | 273° |
| 2026-05-05 14:45 | 25.29400 | 55.01610 | 5600 ft | 291 kts | 273° |
| 2026-05-05 14:46 | 25.29580 | 54.99349 | 5740 ft | 300 kts | 274° |
| 2026-05-05 14:46 | 25.29765 | 54.97023 | 5887 ft | 309 kts | 274° |
| 2026-05-05 14:46 | 25.29954 | 54.94625 | 6029 ft | 318 kts | 274° |
| 2026-05-05 14:46 | 25.30149 | 54.92160 | 6167 ft | 327 kts | 274° |
| 2026-05-05 14:47 | 25.30352 | 54.89629 | 6306 ft | 335 kts | 274° |
| 2026-05-05 14:47 | 25.30562 | 54.87031 | 6471 ft | 343 kts | 275° |
| 2026-05-05 14:47 | 25.30777 | 54.84399 | 6775 ft | 344 kts | 274° |
| 2026-05-05 14:47 | 25.30992 | 54.81756 | 7083 ft | 347 kts | 274° |
| 2026-05-05 14:48 | 25.31207 | 54.79088 | 7396 ft | 349 kts | 274° |
| 2026-05-05 14:48 | 25.31421 | 54.76404 | 7658 ft | 354 kts | 274° |
| 2026-05-05 14:48 | 25.31637 | 54.73657 | 7800 ft | 362 kts | 276° |
| 2026-05-05 14:48 | 25.31859 | 54.70857 | 7945 ft | 370 kts | 275° |
| 2026-05-05 14:49 | 25.32088 | 54.68006 | 8187 ft | 373 kts | 275° |
| 2026-05-05 14:49 | 25.32312 | 54.65204 | 8261 ft | 360 kts | 275° |
| 2026-05-05 14:49 | 25.32531 | 54.62407 | 8341 ft | 370 kts | 275° |
| 2026-05-05 14:49 | 25.32756 | 54.59540 | 8487 ft | 378 kts | 275° |
| 2026-05-05 14:50 | 25.32984 | 54.56616 | 8595 ft | 386 kts | 275° |
| 2026-05-05 14:50 | 25.33366 | 54.53655 | 8738 ft | 392 kts | 283° |
| 2026-05-05 14:50 | 25.34011 | 54.50718 | 8988 ft | 395 kts | 284° |
| 2026-05-05 14:50 | 25.34736 | 54.47825 | 9312 ft | 395 kts | 287° |
| 2026-05-05 14:51 | 25.35519 | 54.44906 | 9631 ft | 397 kts | 287° |
| 2026-05-05 14:51 | 25.36327 | 54.41978 | 9898 ft | 399 kts | 287° |
| 2026-05-05 14:51 | 25.37142 | 54.39038 | 10206 ft | 400 kts | 287° |
| 2026-05-05 14:51 | 25.37954 | 54.36089 | 10503 ft | 401 kts | 287° |
| 2026-05-05 14:52 | 25.38760 | 54.33139 | 10787 ft | 402 kts | 287° |
| 2026-05-05 14:52 | 25.39564 | 54.30174 | 11077 ft | 403 kts | 287° |
| 2026-05-05 14:52 | 25.40367 | 54.27197 | 11351 ft | 404 kts | 287° |
| 2026-05-05 14:52 | 25.41144 | 54.24206 | 11637 ft | 405 kts | 286° |
| 2026-05-05 14:53 | 25.41889 | 54.21203 | 11986 ft | 404 kts | 286° |
| 2026-05-05 14:53 | 25.42624 | 54.18192 | 12270 ft | 406 kts | 285° |
| 2026-05-05 14:53 | 25.43361 | 54.15170 | 12533 ft | 407 kts | 286° |
| 2026-05-05 14:53 | 25.44100 | 54.12146 | 12812 ft | 408 kts | 286° |
| 2026-05-05 14:54 | 25.44849 | 54.09105 | 13071 ft | 409 kts | 286° |
| 2026-05-05 14:54 | 25.45592 | 54.06062 | 13353 ft | 410 kts | 285° |
| 2026-05-05 14:54 | 25.46328 | 54.03002 | 13611 ft | 412 kts | 285° |
| 2026-05-05 14:54 | 25.47061 | 53.99935 | 13840 ft | 413 kts | 285° |
| 2026-05-05 14:55 | 25.47795 | 53.96854 | 14064 ft | 414 kts | 286° |
| 2026-05-05 14:55 | 25.48533 | 53.93767 | 14299 ft | 415 kts | 286° |
| 2026-05-05 14:55 | 25.49264 | 53.90710 | 14521 ft | 417 kts | 285° |
| 2026-05-05 14:55 | 25.50008 | 53.87606 | 14748 ft | 418 kts | 285° |
| 2026-05-05 14:56 | 25.50756 | 53.84481 | 14985 ft | 419 kts | 285° |
| 2026-05-05 14:56 | 25.51504 | 53.81357 | 15203 ft | 421 kts | 285° |
| 2026-05-05 14:56 | 25.52255 | 53.78218 | 15432 ft | 422 kts | 285° |
| 2026-05-05 14:56 | 25.53007 | 53.75068 | 15659 ft | 423 kts | 285° |
| 2026-05-05 14:57 | 25.53762 | 53.71912 | 15884 ft | 425 kts | 285° |
| 2026-05-05 14:57 | 25.54519 | 53.68747 | 16118 ft | 426 kts | 285° |
| 2026-05-05 14:57 | 25.55280 | 53.65569 | 16376 ft | 426 kts | 285° |
| 2026-05-05 14:57 | 25.56027 | 53.62443 | 16689 ft | 425 kts | 285° |
| 2026-05-05 14:58 | 25.56783 | 53.59272 | 16897 ft | 427 kts | 285° |
| 2026-05-05 14:58 | 25.57542 | 53.56091 | 17087 ft | 428 kts | 284° |
| 2026-05-05 14:58 | 25.58303 | 53.52893 | 17318 ft | 429 kts | 284° |
| 2026-05-05 14:58 | 25.59065 | 53.49689 | 17551 ft | 431 kts | 284° |
| 2026-05-05 14:59 | 25.59829 | 53.46477 | 17744 ft | 432 kts | 284° |
| 2026-05-05 14:59 | 25.60595 | 53.43247 | 17956 ft | 433 kts | 284° |
| 2026-05-05 14:59 | 25.61361 | 53.40021 | 18141 ft | 434 kts | 284° |
| 2026-05-05 14:59 | 25.62128 | 53.36780 | 18331 ft | 435 kts | 284° |
| 2026-05-05 15:00 | 25.62895 | 53.33532 | 18503 ft | 436 kts | 284° |
| 2026-05-05 15:00 | 25.63404 | 53.31372 | 18624 ft | 437 kts | 284° |
| 2026-05-05 15:00 | 25.64431 | 53.27011 | 18865 ft | 438 kts | 284° |
| 2026-05-05 15:00 | 25.65200 | 53.23739 | 19040 ft | 439 kts | 284° |
| 2026-05-05 15:01 | 25.65972 | 53.20454 | 19205 ft | 441 kts | 284° |
| 2026-05-05 15:01 | 25.66745 | 53.17161 | 19422 ft | 440 kts | 284° |
| 2026-05-05 15:01 | 25.67516 | 53.13879 | 19679 ft | 439 kts | 284° |
| 2026-05-05 15:01 | 25.68284 | 53.10600 | 19837 ft | 441 kts | 284° |
| 2026-05-05 15:02 | 25.69055 | 53.07303 | 20009 ft | 442 kts | 284° |
| 2026-05-05 15:02 | 25.69843 | 53.03998 | 20169 ft | 444 kts | 286° |
| 2026-05-05 15:02 | 25.70918 | 53.00791 | 20321 ft | 445 kts | 292° |
| 2026-05-05 15:02 | 25.72218 | 52.97672 | 20514 ft | 447 kts | 295° |
| 2026-05-05 15:03 | 25.73611 | 52.94582 | 20672 ft | 448 kts | 296° |
| 2026-05-05 15:03 | 25.75054 | 52.91513 | 20860 ft | 449 kts | 296° |
| 2026-05-05 15:03 | 25.76503 | 52.88485 | 21027 ft | 450 kts | 297° |
| 2026-05-05 15:03 | 25.77977 | 52.85413 | 21200 ft | 451 kts | 296° |
| 2026-05-05 15:04 | 25.79453 | 52.82328 | 21382 ft | 453 kts | 296° |
| 2026-05-05 15:04 | 25.80924 | 52.79234 | 21566 ft | 454 kts | 296° |
| 2026-05-05 15:04 | 25.82394 | 52.76129 | 21732 ft | 455 kts | 296° |
| 2026-05-05 15:04 | 25.83863 | 52.73014 | 21919 ft | 456 kts | 296° |
| 2026-05-05 15:05 | 25.86809 | 52.66747 | 22254 ft | 459 kts | 296° |
| 2026-05-05 15:05 | 25.88283 | 52.63606 | 22430 ft | 460 kts | 296° |
| 2026-05-05 15:05 | 25.89768 | 52.60442 | 22617 ft | 461 kts | 296° |
| 2026-05-05 15:06 | 25.91230 | 52.57274 | 22781 ft | 462 kts | 295° |
| 2026-05-05 15:06 | 25.92655 | 52.54067 | 22951 ft | 463 kts | 294° |
| 2026-05-05 15:06 | 25.94062 | 52.50842 | 23134 ft | 464 kts | 294° |
| 2026-05-05 15:06 | 25.95466 | 52.47609 | 23383 ft | 464 kts | 294° |
| 2026-05-05 15:07 | 25.96853 | 52.44423 | 23558 ft | 464 kts | 294° |
| 2026-05-05 15:07 | 25.98265 | 52.41189 | 23701 ft | 465 kts | 294° |
| 2026-05-05 15:07 | 25.99684 | 52.37954 | 23846 ft | 465 kts | 294° |
| 2026-05-05 15:07 | 26.01117 | 52.34727 | 24016 ft | 466 kts | 294° |
| 2026-05-05 15:08 | 26.02561 | 52.31497 | 24172 ft | 466 kts | 294° |
| 2026-05-05 15:08 | 26.04008 | 52.28264 | 24345 ft | 467 kts | 294° |
| 2026-05-05 15:08 | 26.05455 | 52.25032 | 24514 ft | 466 kts | 294° |
| 2026-05-05 15:08 | 26.06900 | 52.21798 | 24679 ft | 467 kts | 294° |
| 2026-05-05 15:09 | 26.08347 | 52.18551 | 24824 ft | 467 kts | 294° |
| 2026-05-05 15:09 | 26.09770 | 52.15355 | 25020 ft | 467 kts | 294° |
| 2026-05-05 15:09 | 26.11206 | 52.12127 | 25311 ft | 464 kts | 294° |
| 2026-05-05 15:09 | 26.12639 | 52.08900 | 25456 ft | 465 kts | 294° |
| 2026-05-05 15:10 | 26.14073 | 52.05668 | 25580 ft | 466 kts | 293° |
| 2026-05-05 15:10 | 26.15507 | 52.02432 | 25691 ft | 467 kts | 293° |
| 2026-05-05 15:10 | 26.16947 | 51.99181 | 25812 ft | 468 kts | 293° |
| 2026-05-05 15:10 | 26.18398 | 51.95929 | 25961 ft | 469 kts | 294° |
| 2026-05-05 15:11 | 26.19864 | 51.92682 | 26101 ft | 469 kts | 294° |
| 2026-05-05 15:11 | 26.21322 | 51.89427 | 26267 ft | 469 kts | 293° |
| 2026-05-05 15:11 | 26.22764 | 51.86167 | 26405 ft | 470 kts | 293° |
| 2026-05-05 15:11 | 26.24203 | 51.82896 | 26603 ft | 469 kts | 293° |
| 2026-05-05 15:12 | 26.25633 | 51.79641 | 26804 ft | 468 kts | 293° |
| 2026-05-05 15:12 | 26.27078 | 51.76375 | 26883 ft | 470 kts | 293° |
| 2026-05-05 15:12 | 26.28534 | 51.73101 | 27009 ft | 471 kts | 293° |
| 2026-05-05 15:12 | 26.29992 | 51.69831 | 27133 ft | 471 kts | 293° |
| 2026-05-05 15:13 | 26.31432 | 51.66602 | 27289 ft | 472 kts | 293° |
| 2026-05-05 15:13 | 26.32894 | 51.63330 | 27412 ft | 472 kts | 293° |
| 2026-05-05 15:13 | 26.34358 | 51.60050 | 27545 ft | 473 kts | 293° |
| 2026-05-05 15:13 | 26.35823 | 51.56763 | 27601 ft | 475 kts | 293° |
| 2026-05-05 15:14 | 26.37259 | 51.53438 | 27645 ft | 476 kts | 290° |
| 2026-05-05 15:14 | 26.38480 | 51.50006 | 27729 ft | 476 kts | 288° |
| 2026-05-05 15:14 | 26.39640 | 51.46546 | 27822 ft | 476 kts | 287° |
| 2026-05-05 15:14 | 26.40767 | 51.43075 | 27921 ft | 477 kts | 287° |
| 2026-05-05 15:15 | 26.41880 | 51.39587 | 28019 ft | 477 kts | 286° |
| 2026-05-05 15:15 | 26.44100 | 51.32593 | 28200 ft | 478 kts | 286° |
| 2026-05-05 15:16 | 26.46313 | 51.25634 | 28341 ft | 479 kts | 286° |
| 2026-05-05 15:16 | 26.48549 | 51.18620 | 28470 ft | 479 kts | 286° |
| 2026-05-05 15:17 | 26.50780 | 51.11610 | 28730 ft | 477 kts | 286° |
| 2026-05-05 15:17 | 26.52994 | 51.04638 | 28828 ft | 476 kts | 286° |
| 2026-05-05 15:18 | 26.55191 | 50.97707 | 28885 ft | 476 kts | 286° |
| 2026-05-05 15:18 | 26.57397 | 50.90738 | 28973 ft | 475 kts | 286° |
| 2026-05-05 15:19 | 26.59577 | 50.83764 | 29015 ft | 476 kts | 285° |
| 2026-05-05 15:19 | 26.61733 | 50.76770 | 29101 ft | 475 kts | 285° |
| 2026-05-05 15:19 | 26.62804 | 50.73295 | 29277 ft | 471 kts | 285° |
| 2026-05-05 15:20 | 26.63869 | 50.69839 | 29364 ft | 470 kts | 285° |
| 2026-05-05 15:20 | 26.65965 | 50.62919 | 29418 ft | 470 kts | 284° |
| 2026-05-05 15:21 | 26.68008 | 50.55968 | 29429 ft | 471 kts | 284° |
| 2026-05-05 15:21 | 26.70049 | 50.49018 | 29513 ft | 470 kts | 284° |
| 2026-05-05 15:22 | 26.71971 | 50.42047 | 29579 ft | 468 kts | 282° |
| 2026-05-05 15:22 | 26.73720 | 50.35047 | 29729 ft | 466 kts | 282° |
| 2026-05-05 15:23 | 26.75465 | 50.28067 | 29800 ft | 466 kts | 282° |
| 2026-05-05 15:23 | 26.77366 | 50.21130 | 29841 ft | 467 kts | 284° |
| 2026-05-05 15:24 | 26.79113 | 50.15415 | 29882 ft | 467 kts | 285° |
| 2026-05-05 15:24 | 26.81221 | 50.08545 | 29930 ft | 466 kts | 284° |
| 2026-05-05 15:25 | 26.83290 | 50.01661 | 29966 ft | 466 kts | 284° |
| 2026-05-05 15:25 | 26.85330 | 49.94795 | 30020 ft | 465 kts | 284° |
| 2026-05-05 15:26 | 26.87352 | 49.87952 | 30005 ft | 466 kts | 284° |
| 2026-05-05 15:26 | 26.89387 | 49.81060 | 30025 ft | 466 kts | 284° |
| 2026-05-05 15:27 | 26.91421 | 49.74162 | 30038 ft | 466 kts | 284° |
| 2026-05-05 15:27 | 26.93460 | 49.67230 | 29957 ft | 469 kts | 284° |
| 2026-05-05 15:28 | 26.95498 | 49.60296 | 30056 ft | 468 kts | 284° |
| 2026-05-05 15:28 | 26.97531 | 49.53364 | 30076 ft | 468 kts | 284° |
| 2026-05-05 15:29 | 26.99553 | 49.46448 | 30003 ft | 470 kts | 284° |
| 2026-05-05 15:29 | 27.01980 | 49.39612 | 30008 ft | 475 kts | 292° |
| 2026-05-05 15:30 | 27.05121 | 49.33085 | 30093 ft | 476 kts | 294° |
| 2026-05-05 15:30 | 27.08383 | 49.26619 | 30153 ft | 475 kts | 294° |
| 2026-05-05 15:31 | 27.11648 | 49.20174 | 30175 ft | 475 kts | 294° |
| 2026-05-05 15:31 | 27.14900 | 49.13714 | 30195 ft | 475 kts | 294° |
| 2026-05-05 15:32 | 27.18126 | 49.07278 | 30251 ft | 475 kts | 294° |
| 2026-05-05 15:32 | 27.19739 | 49.04061 | 30394 ft | 471 kts | 293° |
| 2026-05-05 15:32 | 27.21345 | 49.00848 | 30397 ft | 472 kts | 293° |
| 2026-05-05 15:33 | 27.24562 | 48.94400 | 30386 ft | 473 kts | 293° |
| 2026-05-05 15:33 | 27.27773 | 48.87951 | 30408 ft | 472 kts | 293° |
| 2026-05-05 15:34 | 27.30980 | 48.81505 | 30427 ft | 472 kts | 293° |
| 2026-05-05 15:34 | 27.34187 | 48.75049 | 30461 ft | 473 kts | 293° |
| 2026-05-05 15:35 | 27.37386 | 48.68600 | 30507 ft | 472 kts | 293° |
| 2026-05-05 15:35 | 27.40580 | 48.62155 | 30653 ft | 468 kts | 292° |
| 2026-05-05 15:35 | 27.42161 | 48.58963 | 30773 ft | 466 kts | 292° |
| 2026-05-05 15:36 | 27.43737 | 48.55772 | 30755 ft | 467 kts | 292° |
| 2026-05-05 15:36 | 27.46879 | 48.49400 | 30675 ft | 469 kts | 292° |
| 2026-05-05 15:37 | 27.50053 | 48.42963 | 30716 ft | 469 kts | 292° |
| 2026-05-05 15:37 | 27.51630 | 48.39770 | 30909 ft | 464 kts | 292° |
| 2026-05-05 15:37 | 27.53195 | 48.36596 | 30967 ft | 463 kts | 292° |
| 2026-05-05 15:38 | 27.56320 | 48.30232 | 30930 ft | 464 kts | 292° |
| 2026-05-05 15:38 | 27.59451 | 48.23850 | 30858 ft | 467 kts | 292° |
| 2026-05-05 15:39 | 27.62574 | 48.17507 | 31043 ft | 462 kts | 292° |
| 2026-05-05 15:39 | 27.65679 | 48.11183 | 31115 ft | 460 kts | 291° |
| 2026-05-05 15:39 | 27.67220 | 48.08039 | 31330 ft | 456 kts | 291° |
| 2026-05-05 15:40 | 27.68748 | 48.04921 | 31566 ft | 451 kts | 291° |
| 2026-05-05 15:40 | 27.70261 | 48.01829 | 31808 ft | 447 kts | 291° |
| 2026-05-05 15:40 | 27.71755 | 47.98768 | 32105 ft | 442 kts | 291° |
| 2026-05-05 15:40 | 27.73229 | 47.95741 | 32343 ft | 437 kts | 290° |
| 2026-05-05 15:41 | 27.74684 | 47.92747 | 32580 ft | 433 kts | 290° |
| 2026-05-05 15:41 | 27.76121 | 47.89789 | 32842 ft | 427 kts | 290° |
| 2026-05-05 15:41 | 27.77523 | 47.86902 | 33098 ft | 422 kts | 290° |
| 2026-05-05 15:41 | 27.78925 | 47.84013 | 33343 ft | 417 kts | 290° |
| 2026-05-05 15:42 | 27.80308 | 47.81160 | 33601 ft | 411 kts | 289° |
| 2026-05-05 15:42 | 27.81672 | 47.78344 | 33743 ft | 408 kts | 289° |
| 2026-05-05 15:42 | 27.83027 | 47.75529 | 33755 ft | 407 kts | 288° |
| 2026-05-05 15:43 | 27.85218 | 47.69699 | 33754 ft | 401 kts | 282° |
| 2026-05-05 15:43 | 27.87105 | 47.63766 | 33755 ft | 401 kts | 281° |
| 2026-05-05 15:44 | 27.88935 | 47.57817 | 33746 ft | 401 kts | 281° |
| 2026-05-05 15:44 | 27.90767 | 47.51862 | 33760 ft | 401 kts | 281° |
| 2026-05-05 15:45 | 27.92606 | 47.45902 | 33768 ft | 402 kts | 281° |
| 2026-05-05 15:45 | 27.94453 | 47.39920 | 33769 ft | 403 kts | 281° |
| 2026-05-05 15:46 | 27.96299 | 47.33933 | 33771 ft | 403 kts | 281° |
| 2026-05-05 15:46 | 27.98129 | 47.27987 | 33780 ft | 403 kts | 281° |
| 2026-05-05 15:47 | 27.99971 | 47.21993 | 33785 ft | 403 kts | 281° |
| 2026-05-05 15:47 | 28.01811 | 47.15988 | 33782 ft | 404 kts | 281° |
| 2026-05-05 15:48 | 28.03650 | 47.09981 | 33803 ft | 405 kts | 281° |
| 2026-05-05 15:48 | 28.05495 | 47.03944 | 33796 ft | 405 kts | 281° |
| 2026-05-05 15:49 | 28.07337 | 46.97903 | 33796 ft | 406 kts | 281° |
| 2026-05-05 15:49 | 28.09179 | 46.91857 | 33799 ft | 406 kts | 281° |
| 2026-05-05 15:50 | 28.11032 | 46.85806 | 33798 ft | 407 kts | 282° |
| 2026-05-05 15:50 | 28.13032 | 46.79790 | 33816 ft | 409 kts | 283° |
| 2026-05-05 15:51 | 28.15066 | 46.73811 | 33802 ft | 410 kts | 283° |
| 2026-05-05 15:51 | 28.17098 | 46.67768 | 33804 ft | 410 kts | 282° |
| 2026-05-05 15:52 | 28.19112 | 46.61716 | 33809 ft | 410 kts | 282° |
| 2026-05-05 15:52 | 28.21122 | 46.55652 | 33808 ft | 411 kts | 282° |
| 2026-05-05 15:53 | 28.23132 | 46.49576 | 33814 ft | 411 kts | 282° |
| 2026-05-05 15:53 | 28.25141 | 46.43495 | 33819 ft | 412 kts | 282° |
| 2026-05-05 15:54 | 28.27151 | 46.37401 | 33825 ft | 413 kts | 282° |
| 2026-05-05 15:54 | 28.29151 | 46.31328 | 33828 ft | 413 kts | 282° |
| 2026-05-05 15:55 | 28.31159 | 46.25217 | 33829 ft | 414 kts | 282° |
| 2026-05-05 15:55 | 28.33169 | 46.19091 | 33834 ft | 415 kts | 282° |
| 2026-05-05 15:56 | 28.35183 | 46.12944 | 33827 ft | 415 kts | 282° |
| 2026-05-05 15:56 | 28.37290 | 46.06824 | 33826 ft | 418 kts | 284° |
| 2026-05-05 15:57 | 28.39596 | 46.00755 | 33829 ft | 419 kts | 285° |
| 2026-05-05 15:57 | 28.41911 | 45.94676 | 33839 ft | 419 kts | 284° |
| 2026-05-05 15:58 | 28.44200 | 45.88566 | 33848 ft | 420 kts | 284° |
| 2026-05-05 15:58 | 28.46455 | 45.82482 | 33853 ft | 421 kts | 284° |
| 2026-05-05 15:59 | 28.48721 | 45.76351 | 33852 ft | 421 kts | 284° |
| 2026-05-05 15:59 | 28.50991 | 45.70201 | 33853 ft | 422 kts | 284° |
| 2026-05-05 16:00 | 28.53263 | 45.64040 | 33861 ft | 423 kts | 284° |
| 2026-05-05 16:00 | 28.55539 | 45.57860 | 33859 ft | 424 kts | 284° |
| 2026-05-05 16:01 | 28.57815 | 45.51668 | 33861 ft | 425 kts | 284° |
| 2026-05-05 16:01 | 28.60096 | 45.45452 | 33863 ft | 425 kts | 284° |
| 2026-05-05 16:02 | 28.62355 | 45.39285 | 33859 ft | 426 kts | 284° |
| 2026-05-05 16:02 | 28.64648 | 45.33017 | 33864 ft | 428 kts | 284° |
| 2026-05-05 16:03 | 28.66931 | 45.26764 | 33862 ft | 428 kts | 284° |
| 2026-05-05 16:03 | 28.69218 | 45.20491 | 33869 ft | 429 kts | 284° |
| 2026-05-05 16:04 | 28.71504 | 45.14211 | 33868 ft | 430 kts | 284° |
| 2026-05-05 16:04 | 28.73792 | 45.07909 | 33869 ft | 431 kts | 284° |
| 2026-05-05 16:05 | 28.76068 | 45.01634 | 33876 ft | 432 kts | 284° |
| 2026-05-05 16:05 | 28.78363 | 44.95293 | 33878 ft | 433 kts | 284° |
| 2026-05-05 16:06 | 28.80661 | 44.88936 | 33875 ft | 434 kts | 284° |
| 2026-05-05 16:06 | 28.82962 | 44.82562 | 33880 ft | 435 kts | 284° |
| 2026-05-05 16:07 | 28.85154 | 44.76154 | 33881 ft | 431 kts | 279° |
| 2026-05-05 16:07 | 28.86266 | 44.69525 | 33877 ft | 423 kts | 271° |
| 2026-05-05 16:08 | 28.86859 | 44.62892 | 33883 ft | 423 kts | 269° |
| 2026-05-05 16:08 | 28.87365 | 44.56200 | 33886 ft | 424 kts | 269° |
| 2026-05-05 16:09 | 28.87876 | 44.49484 | 33867 ft | 425 kts | 269° |
| 2026-05-05 16:09 | 28.88401 | 44.42761 | 33896 ft | 425 kts | 269° |
| 2026-05-05 16:10 | 28.88930 | 44.36021 | 33892 ft | 426 kts | 269° |
| 2026-05-05 16:10 | 28.89456 | 44.29300 | 33897 ft | 427 kts | 269° |
| 2026-05-05 16:11 | 28.89981 | 44.22552 | 33922 ft | 427 kts | 269° |
| 2026-05-05 16:12 | 28.91017 | 44.09049 | 33903 ft | 428 kts | 269° |
| 2026-05-05 16:13 | 28.92298 | 43.92095 | 33910 ft | 429 kts | 269° |
| 2026-05-05 16:13 | 28.92720 | 43.86452 | 33897 ft | 429 kts | 269° |
| 2026-05-05 16:14 | 28.93727 | 43.72857 | 33924 ft | 429 kts | 269° |
| 2026-05-05 16:15 | 28.94715 | 43.59305 | 33926 ft | 430 kts | 269° |
| 2026-05-05 16:16 | 28.95698 | 43.45658 | 33929 ft | 431 kts | 269° |
| 2026-05-05 16:17 | 28.96426 | 43.35400 | 33932 ft | 432 kts | 269° |
| 2026-05-05 16:18 | 28.97145 | 43.25160 | 33940 ft | 433 kts | 269° |
| 2026-05-05 16:19 | 28.97861 | 43.14853 | 33944 ft | 433 kts | 269° |
| 2026-05-05 16:19 | 28.98568 | 43.04575 | 33949 ft | 434 kts | 269° |
| 2026-05-05 16:20 | 28.99503 | 42.90810 | 33949 ft | 434 kts | 269° |
| 2026-05-05 16:22 | 29.00646 | 42.73664 | 33964 ft | 434 kts | 269° |
| 2026-05-05 16:23 | 29.01548 | 42.59904 | 33963 ft | 434 kts | 268° |
| 2026-05-05 16:23 | 29.02215 | 42.49575 | 33969 ft | 434 kts | 269° |
| 2026-05-05 16:24 | 29.02655 | 42.42696 | 33978 ft | 434 kts | 268° |
| 2026-05-05 16:25 | 29.03309 | 42.32358 | 33978 ft | 435 kts | 268° |
| 2026-05-05 16:25 | 29.03958 | 42.22003 | 33975 ft | 435 kts | 268° |
| 2026-05-05 16:26 | 29.04808 | 42.08249 | 33980 ft | 435 kts | 268° |
| 2026-05-05 16:27 | 29.05227 | 42.01357 | 33983 ft | 434 kts | 268° |
| 2026-05-05 16:27 | 29.05642 | 41.94465 | 33989 ft | 433 kts | 268° |
| 2026-05-05 16:28 | 29.06053 | 41.87602 | 33986 ft | 431 kts | 268° |
| 2026-05-05 16:28 | 29.06452 | 41.80816 | 33991 ft | 431 kts | 268° |
| 2026-05-05 16:29 | 29.06850 | 41.73977 | 33994 ft | 430 kts | 268° |
| 2026-05-05 16:29 | 29.07245 | 41.67143 | 33998 ft | 430 kts | 268° |
| 2026-05-05 16:30 | 29.07637 | 41.60323 | 34002 ft | 429 kts | 268° |
| 2026-05-05 16:30 | 29.08025 | 41.53506 | 34004 ft | 430 kts | 268° |
| 2026-05-05 16:31 | 29.08406 | 41.46724 | 34004 ft | 430 kts | 268° |
| 2026-05-05 16:31 | 29.08789 | 41.39898 | 34008 ft | 430 kts | 268° |
| 2026-05-05 16:32 | 29.09171 | 41.33077 | 34022 ft | 430 kts | 268° |
| 2026-05-05 16:32 | 29.09550 | 41.26234 | 34012 ft | 431 kts | 268° |
| 2026-05-05 16:33 | 29.09924 | 41.19402 | 34011 ft | 430 kts | 268° |
| 2026-05-05 16:33 | 29.10295 | 41.12566 | 34035 ft | 431 kts | 268° |
| 2026-05-05 16:34 | 29.10663 | 41.05714 | 34024 ft | 432 kts | 268° |
| 2026-05-05 16:34 | 29.11030 | 40.98849 | 34024 ft | 432 kts | 268° |
| 2026-05-05 16:35 | 29.11390 | 40.92020 | 34024 ft | 433 kts | 268° |
| 2026-05-05 16:35 | 29.11749 | 40.85149 | 34032 ft | 432 kts | 268° |
| 2026-05-05 16:36 | 29.12105 | 40.78284 | 34029 ft | 432 kts | 268° |
| 2026-05-05 16:36 | 29.12457 | 40.71423 | 34034 ft | 432 kts | 268° |
| 2026-05-05 16:37 | 29.12806 | 40.64559 | 34036 ft | 432 kts | 268° |
| 2026-05-05 16:37 | 29.13079 | 40.57748 | 34040 ft | 429 kts | 265° |
| 2026-05-05 16:38 | 29.12941 | 40.50922 | 34023 ft | 429 kts | 263° |
| 2026-05-05 16:38 | 29.12720 | 40.44107 | 34042 ft | 429 kts | 263° |
| 2026-05-05 16:39 | 29.12483 | 40.37289 | 34039 ft | 429 kts | 263° |
| 2026-05-05 16:39 | 29.12248 | 40.30481 | 34039 ft | 428 kts | 263° |
| 2026-05-05 16:40 | 29.12014 | 40.23665 | 34047 ft | 429 kts | 263° |
| 2026-05-05 16:40 | 29.11779 | 40.16896 | 34040 ft | 429 kts | 263° |
| 2026-05-05 16:41 | 29.11539 | 40.10079 | 34039 ft | 429 kts | 263° |
| 2026-05-05 16:41 | 29.11297 | 40.03259 | 34034 ft | 429 kts | 263° |
| 2026-05-05 16:42 | 29.11049 | 39.96429 | 34029 ft | 429 kts | 263° |
| 2026-05-05 16:42 | 29.10801 | 39.89611 | 34033 ft | 430 kts | 264° |
| 2026-05-05 16:43 | 29.10763 | 39.82815 | 34028 ft | 431 kts | 266° |
| 2026-05-05 16:43 | 29.10854 | 39.75939 | 34035 ft | 431 kts | 266° |
| 2026-05-05 16:44 | 29.10921 | 39.69087 | 34031 ft | 431 kts | 266° |
| 2026-05-05 16:44 | 29.10951 | 39.62225 | 34040 ft | 431 kts | 266° |
| 2026-05-05 16:45 | 29.10965 | 39.55375 | 34033 ft | 431 kts | 266° |
| 2026-05-05 16:45 | 29.10975 | 39.48510 | 34030 ft | 431 kts | 266° |
| 2026-05-05 16:46 | 29.10984 | 39.41646 | 34036 ft | 431 kts | 266° |
| 2026-05-05 16:46 | 29.10990 | 39.34780 | 34033 ft | 432 kts | 265° |
| 2026-05-05 16:47 | 29.10993 | 39.27958 | 34029 ft | 432 kts | 265° |
| 2026-05-05 16:47 | 29.10991 | 39.21079 | 34023 ft | 432 kts | 265° |
| 2026-05-05 16:48 | 29.10986 | 39.14200 | 34022 ft | 433 kts | 265° |
| 2026-05-05 16:48 | 29.10978 | 39.07301 | 34017 ft | 434 kts | 265° |
| 2026-05-05 16:49 | 29.10966 | 39.00400 | 34018 ft | 434 kts | 265° |
| 2026-05-05 16:49 | 29.10951 | 38.93537 | 34016 ft | 435 kts | 265° |
| 2026-05-05 16:50 | 29.10931 | 38.86627 | 34026 ft | 435 kts | 265° |
| 2026-05-05 16:50 | 29.10900 | 38.79697 | 34001 ft | 435 kts | 265° |
| 2026-05-05 16:51 | 29.10866 | 38.72783 | 34002 ft | 435 kts | 265° |
| 2026-05-05 16:51 | 29.10829 | 38.65868 | 33999 ft | 434 kts | 265° |
| 2026-05-05 16:52 | 29.10789 | 38.58967 | 33999 ft | 434 kts | 265° |
| 2026-05-05 16:52 | 29.10747 | 38.52113 | 33996 ft | 434 kts | 265° |
| 2026-05-05 16:53 | 29.10700 | 38.45160 | 33992 ft | 434 kts | 265° |
| 2026-05-05 16:53 | 29.10650 | 38.38301 | 33993 ft | 434 kts | 265° |
| 2026-05-05 16:54 | 29.10600 | 38.31406 | 33990 ft | 434 kts | 265° |
| 2026-05-05 16:54 | 29.10540 | 38.24499 | 33987 ft | 434 kts | 265° |
| 2026-05-05 16:55 | 29.10476 | 38.17598 | 34011 ft | 434 kts | 265° |
| 2026-05-05 16:55 | 29.10410 | 38.10691 | 33984 ft | 434 kts | 265° |
| 2026-05-05 16:56 | 29.10343 | 38.03804 | 33976 ft | 433 kts | 265° |
| 2026-05-05 16:56 | 29.10272 | 37.96932 | 33975 ft | 432 kts | 265° |
| 2026-05-05 16:57 | 29.10197 | 37.90102 | 33977 ft | 432 kts | 265° |
| 2026-05-05 16:57 | 29.10119 | 37.83229 | 33977 ft | 432 kts | 265° |
| 2026-05-05 16:58 | 29.10036 | 37.76368 | 33979 ft | 431 kts | 265° |
| 2026-05-05 16:58 | 29.09951 | 37.69517 | 33989 ft | 431 kts | 265° |
| 2026-05-05 16:59 | 29.09862 | 37.62663 | 33982 ft | 431 kts | 265° |
| 2026-05-05 16:59 | 29.09769 | 37.55809 | 33985 ft | 431 kts | 265° |
| 2026-05-05 17:00 | 29.09676 | 37.48963 | 33993 ft | 430 kts | 265° |
| 2026-05-05 17:00 | 29.09621 | 37.42155 | 33995 ft | 431 kts | 266° |
| 2026-05-05 17:01 | 29.09579 | 37.35302 | 33993 ft | 431 kts | 266° |
| 2026-05-05 17:01 | 29.09530 | 37.28446 | 33998 ft | 431 kts | 265° |
| 2026-05-05 17:02 | 29.09471 | 37.21589 | 34003 ft | 432 kts | 265° |
| 2026-05-05 17:02 | 29.09408 | 37.14704 | 33999 ft | 433 kts | 265° |
| 2026-05-05 17:03 | 29.09353 | 37.08980 | 34001 ft | 433 kts | 265° |
| 2026-05-05 17:03 | 29.09284 | 37.02087 | 34002 ft | 433 kts | 265° |
| 2026-05-05 17:04 | 29.09210 | 36.95189 | 34002 ft | 434 kts | 265° |
| 2026-05-05 17:04 | 29.09133 | 36.88273 | 34002 ft | 435 kts | 265° |
| 2026-05-05 17:05 | 29.09052 | 36.81360 | 33999 ft | 435 kts | 265° |
| 2026-05-05 17:05 | 29.08969 | 36.74442 | 34018 ft | 435 kts | 265° |
| 2026-05-05 17:06 | 29.08882 | 36.67555 | 34000 ft | 436 kts | 265° |
| 2026-05-05 17:06 | 29.08790 | 36.60619 | 33998 ft | 436 kts | 265° |
| 2026-05-05 17:07 | 29.08695 | 36.53680 | 34003 ft | 437 kts | 265° |
| 2026-05-05 17:07 | 29.08596 | 36.46731 | 34007 ft | 437 kts | 265° |
| 2026-05-05 17:08 | 29.08430 | 36.39781 | 34010 ft | 437 kts | 264° |
| 2026-05-05 17:08 | 29.08221 | 36.32818 | 34010 ft | 437 kts | 264° |
| 2026-05-05 17:09 | 29.08017 | 36.25865 | 34010 ft | 437 kts | 264° |
| 2026-05-05 17:09 | 29.07818 | 36.18910 | 34017 ft | 438 kts | 265° |
| 2026-05-05 17:10 | 29.07621 | 36.11996 | 34017 ft | 438 kts | 265° |
| 2026-05-05 17:10 | 29.07419 | 36.05035 | 34014 ft | 438 kts | 265° |
| 2026-05-05 17:11 | 29.07212 | 35.98076 | 34016 ft | 438 kts | 264° |
| 2026-05-05 17:11 | 29.07002 | 35.91132 | 34016 ft | 437 kts | 264° |
| 2026-05-05 17:12 | 29.06787 | 35.84170 | 34028 ft | 438 kts | 264° |
| 2026-05-05 17:12 | 29.06569 | 35.77198 | 34028 ft | 439 kts | 264° |
| 2026-05-05 17:13 | 29.06347 | 35.70212 | 34032 ft | 440 kts | 265° |
| 2026-05-05 17:13 | 29.06122 | 35.63234 | 34041 ft | 439 kts | 265° |
| 2026-05-05 17:14 | 29.05895 | 35.56307 | 34039 ft | 439 kts | 265° |
| 2026-05-05 17:14 | 29.05663 | 35.49338 | 34054 ft | 439 kts | 265° |
| 2026-05-05 17:15 | 29.05428 | 35.42367 | 34041 ft | 439 kts | 265° |
| 2026-05-05 17:15 | 29.05189 | 35.35396 | 34042 ft | 438 kts | 265° |
| 2026-05-05 17:16 | 29.04946 | 35.28436 | 34042 ft | 439 kts | 265° |
| 2026-05-05 17:16 | 29.04699 | 35.21465 | 34032 ft | 439 kts | 265° |
| 2026-05-05 17:17 | 29.04447 | 35.14484 | 34031 ft | 439 kts | 265° |
| 2026-05-05 17:17 | 29.04193 | 35.07502 | 34031 ft | 439 kts | 265° |
| 2026-05-05 17:18 | 29.03937 | 35.00570 | 34028 ft | 439 kts | 265° |
| 2026-05-05 17:18 | 29.03676 | 34.93589 | 34016 ft | 440 kts | 264° |
| 2026-05-05 17:19 | 29.03410 | 34.86580 | 34018 ft | 441 kts | 264° |
| 2026-05-05 17:19 | 29.03249 | 34.79571 | 34014 ft | 442 kts | 269° |
| 2026-05-05 17:20 | 29.04302 | 34.72624 | 34014 ft | 449 kts | 283° |
| 2026-05-05 17:20 | 29.07055 | 34.66149 | 34017 ft | 461 kts | 298° |
| 2026-05-05 17:21 | 29.11504 | 34.60727 | 34024 ft | 478 kts | 315° |
| 2026-05-05 17:22 | 29.19770 | 34.54244 | 34031 ft | 485 kts | 319° |
| 2026-05-05 17:22 | 29.25435 | 34.50026 | 34041 ft | 486 kts | 319° |
| 2026-05-05 17:23 | 29.31088 | 34.45769 | 34041 ft | 485 kts | 319° |
| 2026-05-05 17:23 | 29.36707 | 34.41498 | 34047 ft | 483 kts | 318° |
| 2026-05-05 17:24 | 29.42297 | 34.37229 | 34049 ft | 482 kts | 318° |
| 2026-05-05 17:24 | 29.47884 | 34.32953 | 34054 ft | 482 kts | 318° |
| 2026-05-05 17:25 | 29.53461 | 34.28681 | 34054 ft | 482 kts | 318° |
| 2026-05-05 17:25 | 29.59046 | 34.24405 | 34074 ft | 483 kts | 319° |
| 2026-05-05 17:26 | 29.64888 | 34.20600 | 34056 ft | 486 kts | 323° |
| 2026-05-05 17:26 | 29.70844 | 34.16952 | 34122 ft | 484 kts | 324° |
| 2026-05-05 17:27 | 29.76790 | 34.13350 | 34368 ft | 478 kts | 324° |
| 2026-05-05 17:27 | 29.79721 | 34.11576 | 34574 ft | 473 kts | 324° |
| 2026-05-05 17:27 | 29.82616 | 34.09816 | 34811 ft | 468 kts | 323° |
| 2026-05-05 17:27 | 29.85479 | 34.08070 | 35021 ft | 464 kts | 323° |
| 2026-05-05 17:28 | 29.88325 | 34.06328 | 35072 ft | 464 kts | 323° |
| 2026-05-05 17:28 | 29.94029 | 34.02827 | 35054 ft | 465 kts | 323° |
| 2026-05-05 17:29 | 29.99746 | 33.99321 | 35062 ft | 465 kts | 323° |
| 2026-05-05 17:29 | 30.05431 | 33.95835 | 35059 ft | 466 kts | 323° |
| 2026-05-05 17:30 | 30.11161 | 33.92318 | 35058 ft | 467 kts | 323° |
| 2026-05-05 17:30 | 30.16902 | 33.88791 | 35080 ft | 467 kts | 323° |
| 2026-05-05 17:31 | 30.22647 | 33.85258 | 35068 ft | 468 kts | 323° |
| 2026-05-05 17:31 | 30.28398 | 33.81716 | 35067 ft | 468 kts | 323° |
| 2026-05-05 17:32 | 30.34150 | 33.78167 | 35075 ft | 468 kts | 323° |
| 2026-05-05 17:32 | 30.39901 | 33.74615 | 35075 ft | 469 kts | 323° |
| 2026-05-05 17:33 | 30.45654 | 33.71056 | 35099 ft | 469 kts | 323° |
| 2026-05-05 17:33 | 30.51416 | 33.67486 | 35086 ft | 469 kts | 323° |
| 2026-05-05 17:34 | 30.57134 | 33.63941 | 35082 ft | 469 kts | 323° |
| 2026-05-05 17:34 | 30.62896 | 33.60362 | 35080 ft | 469 kts | 323° |
| 2026-05-05 17:35 | 30.68648 | 33.56784 | 35077 ft | 469 kts | 323° |
| 2026-05-05 17:35 | 30.74396 | 33.53203 | 35112 ft | 469 kts | 323° |
| 2026-05-05 17:36 | 30.80151 | 33.49613 | 35076 ft | 469 kts | 323° |
| 2026-05-05 17:36 | 30.85901 | 33.46023 | 35078 ft | 468 kts | 323° |
| 2026-05-05 17:37 | 30.91601 | 33.42459 | 35081 ft | 467 kts | 323° |
| 2026-05-05 17:37 | 30.97327 | 33.38874 | 35080 ft | 467 kts | 323° |
| 2026-05-05 17:38 | 31.03054 | 33.35281 | 35097 ft | 467 kts | 323° |
| 2026-05-05 17:38 | 31.08773 | 33.31688 | 35075 ft | 467 kts | 323° |
| 2026-05-05 17:39 | 31.14495 | 33.28090 | 35073 ft | 467 kts | 323° |
| 2026-05-05 17:39 | 31.20207 | 33.24493 | 35078 ft | 466 kts | 323° |
| 2026-05-05 17:40 | 31.25916 | 33.20893 | 35075 ft | 466 kts | 323° |
| 2026-05-05 17:40 | 31.31630 | 33.17286 | 35074 ft | 466 kts | 323° |
| 2026-05-05 17:41 | 31.37738 | 33.14549 | 35080 ft | 483 kts | 339° |
| 2026-05-05 17:41 | 31.44526 | 33.13632 | 35081 ft | 494 kts | 347° |
| 2026-05-05 17:42 | 31.51416 | 33.13269 | 35076 ft | 496 kts | 349° |
| 2026-05-05 17:42 | 31.58324 | 33.12987 | 35070 ft | 497 kts | 348° |
| 2026-05-05 17:43 | 31.65233 | 33.12675 | 35074 ft | 497 kts | 348° |
| 2026-05-05 17:43 | 31.72143 | 33.12324 | 35071 ft | 495 kts | 346° |
| 2026-05-05 17:44 | 31.78688 | 33.10779 | 35072 ft | 474 kts | 330° |
| 2026-05-05 17:44 | 31.84330 | 33.07143 | 35077 ft | 455 kts | 313° |
| 2026-05-05 17:45 | 31.88855 | 33.02076 | 35071 ft | 447 kts | 307° |
| 2026-05-05 17:45 | 31.93107 | 32.96741 | 35072 ft | 446 kts | 306° |
| 2026-05-05 17:46 | 31.97308 | 32.91413 | 35071 ft | 446 kts | 306° |
| 2026-05-05 17:46 | 32.01550 | 32.86074 | 35073 ft | 447 kts | 306° |
| 2026-05-05 17:47 | 32.05816 | 32.80739 | 35075 ft | 447 kts | 307° |
| 2026-05-05 17:47 | 32.10081 | 32.75410 | 35078 ft | 447 kts | 307° |
| 2026-05-05 17:48 | 32.14342 | 32.70074 | 35107 ft | 447 kts | 307° |
| 2026-05-05 17:48 | 32.18606 | 32.64720 | 35072 ft | 448 kts | 307° |
| 2026-05-05 17:49 | 32.22867 | 32.59363 | 35073 ft | 448 kts | 307° |
| 2026-05-05 17:49 | 32.27140 | 32.53985 | 35072 ft | 448 kts | 307° |
| 2026-05-05 17:50 | 32.31382 | 32.48637 | 35073 ft | 448 kts | 307° |
| 2026-05-05 17:50 | 32.35649 | 32.43250 | 35073 ft | 448 kts | 307° |
| 2026-05-05 17:51 | 32.39912 | 32.37860 | 35074 ft | 449 kts | 307° |
| 2026-05-05 17:51 | 32.44174 | 32.32462 | 35068 ft | 449 kts | 307° |
| 2026-05-05 17:52 | 32.48437 | 32.27056 | 35072 ft | 449 kts | 307° |
| 2026-05-05 17:52 | 32.51977 | 32.22559 | 35087 ft | 450 kts | 307° |
| 2026-05-05 17:53 | 32.56251 | 32.17124 | 35069 ft | 450 kts | 307° |
| 2026-05-05 17:53 | 32.60521 | 32.11688 | 35069 ft | 450 kts | 307° |
| 2026-05-05 17:54 | 32.64809 | 32.06270 | 35069 ft | 451 kts | 310° |
| 2026-05-05 17:54 | 32.69391 | 32.01144 | 35070 ft | 453 kts | 312° |
| 2026-05-05 17:55 | 32.74061 | 31.96116 | 35064 ft | 453 kts | 312° |
| 2026-05-05 17:55 | 32.78670 | 31.91071 | 35064 ft | 453 kts | 311° |
| 2026-05-05 17:56 | 32.83274 | 31.85955 | 35064 ft | 453 kts | 311° |
| 2026-05-05 17:56 | 32.87864 | 31.80822 | 35063 ft | 453 kts | 312° |
| 2026-05-05 17:57 | 32.92462 | 31.75675 | 35064 ft | 453 kts | 312° |
| 2026-05-05 17:57 | 32.97057 | 31.70529 | 35064 ft | 453 kts | 312° |
| 2026-05-05 17:58 | 33.01625 | 31.65407 | 35059 ft | 453 kts | 312° |
| 2026-05-05 17:58 | 33.06219 | 31.60248 | 35061 ft | 453 kts | 312° |
| 2026-05-05 17:59 | 33.10811 | 31.55082 | 35061 ft | 453 kts | 312° |
| 2026-05-05 17:59 | 33.15398 | 31.49913 | 35058 ft | 453 kts | 312° |
| 2026-05-05 18:00 | 33.19986 | 31.44734 | 35065 ft | 454 kts | 313° |
| 2026-05-05 18:00 | 33.24571 | 31.39554 | 35061 ft | 454 kts | 313° |
| 2026-05-05 18:01 | 33.29157 | 31.34367 | 35058 ft | 454 kts | 313° |
| 2026-05-05 18:01 | 33.33739 | 31.29175 | 35058 ft | 454 kts | 313° |
| 2026-05-05 18:02 | 33.38323 | 31.23972 | 35051 ft | 454 kts | 313° |
| 2026-05-05 18:02 | 33.42898 | 31.18771 | 35056 ft | 453 kts | 313° |
| 2026-05-05 18:03 | 33.47469 | 31.13567 | 35056 ft | 453 kts | 313° |
| 2026-05-05 18:03 | 33.52004 | 31.08395 | 35075 ft | 453 kts | 313° |
| 2026-05-05 18:04 | 33.56574 | 31.03175 | 35060 ft | 453 kts | 313° |
| 2026-05-05 18:04 | 33.61136 | 30.97956 | 35059 ft | 453 kts | 313° |
| 2026-05-05 18:05 | 33.65698 | 30.92730 | 35052 ft | 453 kts | 313° |
| 2026-05-05 18:05 | 33.70255 | 30.87501 | 35052 ft | 453 kts | 313° |
| 2026-05-05 18:06 | 33.74811 | 30.82266 | 35053 ft | 452 kts | 313° |
| 2026-05-05 18:06 | 33.79360 | 30.77030 | 35053 ft | 452 kts | 313° |
| 2026-05-05 18:07 | 33.83871 | 30.71830 | 35055 ft | 452 kts | 313° |
| 2026-05-05 18:07 | 33.88415 | 30.66583 | 35050 ft | 452 kts | 313° |
| 2026-05-05 18:08 | 33.92955 | 30.61334 | 35045 ft | 452 kts | 313° |
| 2026-05-05 18:08 | 33.97491 | 30.56081 | 35059 ft | 452 kts | 313° |
| 2026-05-05 18:09 | 34.02023 | 30.50825 | 35042 ft | 452 kts | 313° |
| 2026-05-05 18:09 | 34.06554 | 30.45561 | 35045 ft | 452 kts | 313° |
| 2026-05-05 18:10 | 34.11080 | 30.40294 | 35053 ft | 452 kts | 313° |
| 2026-05-05 18:10 | 34.15598 | 30.35029 | 35058 ft | 452 kts | 313° |
| 2026-05-05 18:11 | 34.20124 | 30.29746 | 35058 ft | 452 kts | 313° |
| 2026-05-05 18:11 | 34.24611 | 30.24501 | 35046 ft | 452 kts | 313° |
| 2026-05-05 18:12 | 34.29127 | 30.19214 | 35041 ft | 451 kts | 313° |
| 2026-05-05 18:12 | 34.33639 | 30.13923 | 35043 ft | 451 kts | 313° |
| 2026-05-05 18:13 | 34.38147 | 30.08628 | 35044 ft | 451 kts | 313° |
| 2026-05-05 18:13 | 34.42648 | 30.03332 | 35045 ft | 451 kts | 313° |
| 2026-05-05 18:14 | 34.47139 | 29.98030 | 35042 ft | 450 kts | 313° |
| 2026-05-05 18:14 | 34.51522 | 29.92652 | 35040 ft | 450 kts | 312° |
| 2026-05-05 18:15 | 34.55893 | 29.87214 | 35041 ft | 450 kts | 312° |
| 2026-05-05 18:15 | 34.60270 | 29.81782 | 35032 ft | 450 kts | 312° |
| 2026-05-05 18:16 | 34.64650 | 29.76362 | 35036 ft | 449 kts | 312° |
| 2026-05-05 18:16 | 34.69024 | 29.70949 | 35038 ft | 449 kts | 312° |
| 2026-05-05 18:17 | 34.73394 | 29.65530 | 35042 ft | 449 kts | 312° |
| 2026-05-05 18:17 | 34.77758 | 29.60110 | 35035 ft | 448 kts | 312° |
| 2026-05-05 18:18 | 34.82094 | 29.54714 | 35037 ft | 448 kts | 312° |
| 2026-05-05 18:18 | 34.86455 | 29.49277 | 35039 ft | 448 kts | 312° |
| 2026-05-05 18:19 | 34.90812 | 29.43840 | 35039 ft | 448 kts | 312° |
| 2026-05-05 18:19 | 34.95151 | 29.38415 | 34803 ft | 442 kts | 312° |
| 2026-05-05 18:19 | 34.97295 | 29.35733 | 34290 ft | 444 kts | 313° |
| 2026-05-05 18:20 | 34.99584 | 29.33165 | 34052 ft | 449 kts | 319° |
| 2026-05-05 18:20 | 35.04531 | 29.28470 | 34033 ft | 451 kts | 320° |
| 2026-05-05 18:21 | 35.09529 | 29.23897 | 34026 ft | 452 kts | 321° |
| 2026-05-05 18:21 | 35.14575 | 29.19311 | 34027 ft | 452 kts | 321° |
| 2026-05-05 18:22 | 35.19623 | 29.14705 | 34031 ft | 453 kts | 321° |
| 2026-05-05 18:22 | 35.24676 | 29.10078 | 34023 ft | 453 kts | 321° |
| 2026-05-05 18:23 | 35.29687 | 29.05478 | 34021 ft | 453 kts | 321° |
| 2026-05-05 18:23 | 35.34737 | 29.00836 | 34023 ft | 453 kts | 321° |
| 2026-05-05 18:24 | 35.39780 | 28.96193 | 34023 ft | 453 kts | 321° |
| 2026-05-05 18:24 | 35.44819 | 28.91545 | 34024 ft | 453 kts | 321° |
| 2026-05-05 18:25 | 35.49851 | 28.86898 | 34023 ft | 452 kts | 321° |
| 2026-05-05 18:25 | 35.54878 | 28.82248 | 34023 ft | 452 kts | 321° |
| 2026-05-05 18:26 | 35.59868 | 28.77625 | 34019 ft | 452 kts | 321° |
| 2026-05-05 18:26 | 35.64889 | 28.72964 | 34018 ft | 452 kts | 321° |
| 2026-05-05 18:27 | 35.69904 | 28.68302 | 34012 ft | 452 kts | 321° |
| 2026-05-05 18:27 | 35.74914 | 28.63636 | 34024 ft | 451 kts | 321° |
| 2026-05-05 18:28 | 35.82440 | 28.56615 | 34012 ft | 451 kts | 321° |
| 2026-05-05 18:28 | 35.87411 | 28.51967 | 34015 ft | 451 kts | 321° |
| 2026-05-05 18:29 | 35.92413 | 28.47283 | 34010 ft | 451 kts | 321° |
| 2026-05-05 18:29 | 35.97414 | 28.42593 | 34015 ft | 451 kts | 321° |
| 2026-05-05 18:30 | 36.02414 | 28.37897 | 34015 ft | 451 kts | 321° |
| 2026-05-05 18:30 | 36.07377 | 28.33221 | 34008 ft | 450 kts | 321° |
| 2026-05-05 18:31 | 36.12368 | 28.28507 | 34012 ft | 449 kts | 321° |
| 2026-05-05 18:31 | 36.17339 | 28.23806 | 34008 ft | 449 kts | 321° |
| 2026-05-05 18:32 | 36.22271 | 28.19134 | 34007 ft | 449 kts | 321° |
| 2026-05-05 18:32 | 36.27226 | 28.14434 | 34005 ft | 449 kts | 321° |
| 2026-05-05 18:33 | 36.32183 | 28.09723 | 34014 ft | 448 kts | 321° |
| 2026-05-05 18:33 | 36.36894 | 28.04641 | 33990 ft | 449 kts | 317° |
| 2026-05-05 18:34 | 36.41485 | 27.99383 | 33988 ft | 449 kts | 316° |
| 2026-05-05 18:34 | 36.46055 | 27.94084 | 33997 ft | 449 kts | 316° |
| 2026-05-05 18:35 | 36.50621 | 27.88785 | 33999 ft | 449 kts | 316° |
| 2026-05-05 18:35 | 36.55186 | 27.83486 | 34005 ft | 449 kts | 316° |
| 2026-05-05 18:36 | 36.59725 | 27.78215 | 34018 ft | 449 kts | 316° |
| 2026-05-05 18:36 | 36.64294 | 27.72902 | 34026 ft | 450 kts | 316° |
| 2026-05-05 18:37 | 36.68863 | 27.67578 | 34014 ft | 450 kts | 316° |
| 2026-05-05 18:37 | 36.73437 | 27.62240 | 34032 ft | 451 kts | 316° |
| 2026-05-05 18:38 | 36.78021 | 27.56880 | 34023 ft | 451 kts | 316° |
| 2026-05-05 18:38 | 36.82594 | 27.51522 | 34044 ft | 451 kts | 316° |
| 2026-05-05 18:39 | 36.87170 | 27.46152 | 34032 ft | 450 kts | 316° |
| 2026-05-05 18:39 | 36.91727 | 27.40795 | 34043 ft | 449 kts | 316° |
| 2026-05-05 18:40 | 36.96245 | 27.35475 | 34037 ft | 449 kts | 316° |
| 2026-05-05 18:40 | 37.00783 | 27.30123 | 34045 ft | 448 kts | 316° |
| 2026-05-05 18:41 | 37.04586 | 27.25630 | 34042 ft | 448 kts | 316° |
| 2026-05-05 18:41 | 37.09099 | 27.20290 | 34044 ft | 448 kts | 316° |
| 2026-05-05 18:42 | 37.13639 | 27.14910 | 34048 ft | 448 kts | 316° |
| 2026-05-05 18:42 | 37.18169 | 27.09531 | 34046 ft | 448 kts | 316° |
| 2026-05-05 18:43 | 37.22698 | 27.04146 | 34046 ft | 448 kts | 316° |
| 2026-05-05 18:43 | 37.27201 | 26.98780 | 34048 ft | 448 kts | 316° |
| 2026-05-05 18:44 | 37.31724 | 26.93381 | 34047 ft | 448 kts | 316° |
| 2026-05-05 18:44 | 37.36247 | 26.87974 | 34042 ft | 448 kts | 316° |
| 2026-05-05 18:45 | 37.40765 | 26.82572 | 34055 ft | 447 kts | 317° |
| 2026-05-05 18:45 | 37.45445 | 26.77425 | 34030 ft | 447 kts | 319° |
| 2026-05-05 18:46 | 37.50209 | 26.72405 | 34047 ft | 446 kts | 319° |
| 2026-05-05 18:46 | 37.54952 | 26.67349 | 34029 ft | 446 kts | 319° |
| 2026-05-05 18:47 | 37.59667 | 26.62256 | 34050 ft | 446 kts | 319° |
| 2026-05-05 18:47 | 37.64343 | 26.57177 | 34034 ft | 446 kts | 319° |
| 2026-05-05 18:48 | 37.69041 | 26.52064 | 34051 ft | 445 kts | 319° |
| 2026-05-05 18:48 | 37.73735 | 26.46961 | 34059 ft | 445 kts | 319° |
| 2026-05-05 18:49 | 37.78425 | 26.41860 | 34063 ft | 445 kts | 319° |
| 2026-05-05 18:49 | 37.83111 | 26.36753 | 34069 ft | 445 kts | 319° |
| 2026-05-05 18:50 | 37.87807 | 26.31625 | 34061 ft | 446 kts | 319° |
| 2026-05-05 18:50 | 37.92499 | 26.26483 | 34062 ft | 446 kts | 319° |
| 2026-05-05 18:51 | 37.97187 | 26.21324 | 34055 ft | 445 kts | 319° |
| 2026-05-05 18:51 | 38.01834 | 26.16202 | 34057 ft | 445 kts | 319° |
| 2026-05-05 18:52 | 38.06511 | 26.11043 | 34056 ft | 445 kts | 319° |
| 2026-05-05 18:52 | 38.11186 | 26.05878 | 34053 ft | 445 kts | 318° |
| 2026-05-05 18:53 | 38.15864 | 26.00696 | 34055 ft | 447 kts | 319° |
| 2026-05-05 18:53 | 38.20552 | 25.95496 | 34058 ft | 447 kts | 319° |
| 2026-05-05 18:54 | 38.25233 | 25.90295 | 34052 ft | 446 kts | 318° |
| 2026-05-05 18:54 | 38.30034 | 25.85379 | 34057 ft | 446 kts | 322° |
| 2026-05-05 18:55 | 38.35013 | 25.80675 | 34060 ft | 445 kts | 322° |
| 2026-05-05 18:55 | 38.39984 | 25.75938 | 34073 ft | 445 kts | 322° |
| 2026-05-05 18:56 | 38.44922 | 25.71147 | 34064 ft | 446 kts | 322° |
| 2026-05-05 18:56 | 38.49854 | 25.66320 | 34065 ft | 447 kts | 322° |
| 2026-05-05 18:57 | 38.54783 | 25.61484 | 34057 ft | 446 kts | 322° |
| 2026-05-05 18:57 | 38.59695 | 25.56660 | 34063 ft | 445 kts | 321° |
| 2026-05-05 18:58 | 38.64552 | 25.51884 | 34345 ft | 438 kts | 321° |
| 2026-05-05 18:58 | 38.66958 | 25.49514 | 34586 ft | 434 kts | 321° |
| 2026-05-05 18:58 | 38.69339 | 25.47165 | 34828 ft | 429 kts | 321° |
| 2026-05-05 18:59 | 38.71690 | 25.44841 | 35066 ft | 425 kts | 321° |
| 2026-05-05 18:59 | 38.74017 | 25.42540 | 35306 ft | 420 kts | 321° |
| 2026-05-05 18:59 | 38.76317 | 25.40266 | 35537 ft | 414 kts | 321° |
| 2026-05-05 18:59 | 38.78587 | 25.38021 | 35776 ft | 409 kts | 321° |
| 2026-05-05 19:00 | 38.80820 | 25.35814 | 36000 ft | 403 kts | 321° |
| 2026-05-05 19:00 | 38.83037 | 25.33622 | 36055 ft | 402 kts | 321° |
| 2026-05-05 19:00 | 38.87452 | 25.29250 | 36071 ft | 400 kts | 321° |
| 2026-05-05 19:01 | 38.91852 | 25.24880 | 36053 ft | 399 kts | 321° |
| 2026-05-05 19:01 | 38.96211 | 25.20544 | 36059 ft | 398 kts | 321° |
| 2026-05-05 19:02 | 39.00582 | 25.16189 | 36058 ft | 396 kts | 321° |
| 2026-05-05 19:02 | 39.04934 | 25.11846 | 36061 ft | 395 kts | 321° |
| 2026-05-05 19:03 | 39.09263 | 25.07520 | 36059 ft | 393 kts | 321° |
| 2026-05-05 19:03 | 39.13594 | 25.03182 | 35782 ft | 398 kts | 321° |
| 2026-05-05 19:04 | 39.15801 | 25.00967 | 35566 ft | 404 kts | 321° |
| 2026-05-05 19:04 | 39.18010 | 24.98746 | 35313 ft | 411 kts | 321° |
| 2026-05-05 19:04 | 39.20278 | 24.96463 | 35094 ft | 416 kts | 321° |
| 2026-05-05 19:04 | 39.22565 | 24.94159 | 35062 ft | 418 kts | 321° |
| 2026-05-05 19:05 | 39.27162 | 24.89529 | 35054 ft | 420 kts | 321° |
| 2026-05-05 19:05 | 39.31773 | 24.84878 | 35054 ft | 422 kts | 321° |
| 2026-05-05 19:06 | 39.36407 | 24.80199 | 35054 ft | 423 kts | 321° |
| 2026-05-05 19:06 | 39.41056 | 24.75496 | 35053 ft | 425 kts | 321° |
| 2026-05-05 19:07 | 39.45729 | 24.70762 | 35053 ft | 427 kts | 321° |
| 2026-05-05 19:07 | 39.50414 | 24.66005 | 35057 ft | 429 kts | 321° |
| 2026-05-05 19:08 | 39.55120 | 24.61220 | 35049 ft | 431 kts | 321° |
| 2026-05-05 19:08 | 39.59821 | 24.56431 | 35050 ft | 433 kts | 321° |
| 2026-05-05 19:09 | 39.64571 | 24.51584 | 35049 ft | 435 kts | 321° |
| 2026-05-05 19:09 | 39.69341 | 24.46708 | 35046 ft | 437 kts | 321° |
| 2026-05-05 19:10 | 39.74125 | 24.41810 | 35047 ft | 439 kts | 321° |
| 2026-05-05 19:10 | 39.78924 | 24.36885 | 35039 ft | 440 kts | 321° |
| 2026-05-05 19:11 | 39.83744 | 24.31933 | 35043 ft | 442 kts | 321° |
| 2026-05-05 19:11 | 39.88582 | 24.26951 | 35043 ft | 444 kts | 321° |
| 2026-05-05 19:12 | 39.93424 | 24.21957 | 35046 ft | 445 kts | 321° |
| 2026-05-05 19:12 | 39.98251 | 24.16967 | 35046 ft | 446 kts | 321° |
| 2026-05-05 19:13 | 40.03124 | 24.11921 | 35049 ft | 447 kts | 321° |
| 2026-05-05 19:13 | 40.08006 | 24.06856 | 35026 ft | 448 kts | 321° |
| 2026-05-05 19:14 | 40.12888 | 24.01784 | 35042 ft | 448 kts | 321° |
| 2026-05-05 19:14 | 40.17768 | 23.96702 | 35042 ft | 449 kts | 320° |
| 2026-05-05 19:15 | 40.22651 | 23.91607 | 35042 ft | 449 kts | 321° |
| 2026-05-05 19:15 | 40.27500 | 23.86537 | 35039 ft | 449 kts | 320° |
| 2026-05-05 19:16 | 40.32383 | 23.81422 | 35039 ft | 449 kts | 320° |
| 2026-05-05 19:16 | 40.37265 | 23.76298 | 35040 ft | 449 kts | 320° |
| 2026-05-05 19:17 | 40.42148 | 23.71166 | 35035 ft | 449 kts | 320° |
| 2026-05-05 19:17 | 40.47016 | 23.66039 | 35035 ft | 448 kts | 320° |
| 2026-05-05 19:18 | 40.51880 | 23.60906 | 35031 ft | 448 kts | 320° |
| 2026-05-05 19:18 | 40.56711 | 23.55795 | 35033 ft | 449 kts | 320° |
| 2026-05-05 19:19 | 40.61597 | 23.50617 | 35033 ft | 449 kts | 320° |
| 2026-05-05 19:19 | 40.66436 | 23.45480 | 35023 ft | 450 kts | 320° |
| 2026-05-05 19:20 | 40.71315 | 23.40291 | 35019 ft | 449 kts | 320° |
| 2026-05-05 19:20 | 40.76172 | 23.35117 | 35015 ft | 448 kts | 320° |
| 2026-05-05 19:21 | 40.81025 | 23.29935 | 35020 ft | 448 kts | 320° |
| 2026-05-05 19:21 | 40.85876 | 23.24745 | 35017 ft | 449 kts | 320° |
| 2026-05-05 19:22 | 40.90734 | 23.19538 | 35014 ft | 450 kts | 320° |
| 2026-05-05 19:22 | 40.95564 | 23.14350 | 35011 ft | 450 kts | 320° |
| 2026-05-05 19:23 | 41.00425 | 23.09120 | 34996 ft | 450 kts | 320° |
| 2026-05-05 19:23 | 41.05278 | 23.03886 | 35010 ft | 450 kts | 320° |
| 2026-05-05 19:24 | 41.09992 | 22.98431 | 35013 ft | 451 kts | 313° |
| 2026-05-05 19:24 | 41.14169 | 22.92208 | 35003 ft | 451 kts | 310° |
| 2026-05-05 19:25 | 41.18232 | 22.85841 | 35006 ft | 452 kts | 310° |
| 2026-05-05 19:25 | 41.22275 | 22.79440 | 35006 ft | 452 kts | 310° |
| 2026-05-05 19:26 | 41.26338 | 22.73064 | 34998 ft | 452 kts | 311° |
| 2026-05-05 19:26 | 41.30541 | 22.66910 | 35002 ft | 452 kts | 312° |
| 2026-05-05 19:27 | 41.34812 | 22.60767 | 35004 ft | 452 kts | 312° |
| 2026-05-05 19:27 | 41.39064 | 22.54582 | 35006 ft | 453 kts | 312° |
| 2026-05-05 19:28 | 41.42603 | 22.49388 | 35009 ft | 454 kts | 312° |
| 2026-05-05 19:28 | 41.46846 | 22.43138 | 35014 ft | 454 kts | 311° |
| 2026-05-05 19:29 | 41.51083 | 22.36881 | 34999 ft | 454 kts | 311° |
| 2026-05-05 19:29 | 41.55313 | 22.30622 | 35009 ft | 454 kts | 311° |
| 2026-05-05 19:30 | 41.59540 | 22.24357 | 34992 ft | 454 kts | 311° |
| 2026-05-05 19:30 | 41.63763 | 22.18084 | 35020 ft | 453 kts | 311° |
| 2026-05-05 19:31 | 41.67982 | 22.11804 | 34987 ft | 454 kts | 311° |
| 2026-05-05 19:31 | 41.72171 | 22.05557 | 35009 ft | 453 kts | 311° |
| 2026-05-05 19:32 | 41.76383 | 21.99262 | 34986 ft | 453 kts | 311° |
| 2026-05-05 19:32 | 41.80580 | 21.92973 | 35005 ft | 452 kts | 311° |
| 2026-05-05 19:33 | 41.84773 | 21.86678 | 34995 ft | 452 kts | 311° |
| 2026-05-05 19:33 | 41.88960 | 21.80379 | 35006 ft | 452 kts | 311° |
| 2026-05-05 19:34 | 41.93143 | 21.74072 | 35003 ft | 451 kts | 310° |
| 2026-05-05 19:35 | 41.99385 | 21.64638 | 34992 ft | 451 kts | 310° |
| 2026-05-05 19:35 | 42.03557 | 21.58314 | 34991 ft | 451 kts | 310° |
| 2026-05-05 19:36 | 42.07719 | 21.51991 | 35003 ft | 451 kts | 310° |
| 2026-05-05 19:36 | 42.11880 | 21.45656 | 35003 ft | 451 kts | 310° |
| 2026-05-05 19:37 | 42.16039 | 21.39314 | 35009 ft | 451 kts | 310° |
| 2026-05-05 19:37 | 42.20118 | 21.32939 | 35026 ft | 451 kts | 309° |
| 2026-05-05 19:38 | 42.24182 | 21.26444 | 35031 ft | 452 kts | 309° |
| 2026-05-05 19:38 | 42.28245 | 21.19947 | 35035 ft | 453 kts | 309° |
| 2026-05-05 19:39 | 42.32317 | 21.13449 | 35036 ft | 453 kts | 309° |
| 2026-05-05 19:39 | 42.36389 | 21.06951 | 35062 ft | 453 kts | 309° |
| 2026-05-05 19:40 | 42.40462 | 21.00435 | 35061 ft | 453 kts | 309° |
| 2026-05-05 19:40 | 42.44501 | 20.93959 | 35062 ft | 453 kts | 309° |
| 2026-05-05 19:41 | 42.48564 | 20.87430 | 35048 ft | 453 kts | 309° |
| 2026-05-05 19:41 | 42.52625 | 20.80888 | 35045 ft | 454 kts | 309° |
| 2026-05-05 19:42 | 42.56684 | 20.74338 | 35050 ft | 453 kts | 309° |
| 2026-05-05 19:42 | 42.60735 | 20.67784 | 35041 ft | 453 kts | 308° |
| 2026-05-05 19:43 | 42.64788 | 20.61213 | 35037 ft | 453 kts | 308° |
| 2026-05-05 19:43 | 42.68812 | 20.54674 | 35037 ft | 453 kts | 308° |
| 2026-05-05 19:44 | 42.72854 | 20.48089 | 35035 ft | 453 kts | 308° |
| 2026-05-05 19:44 | 42.76890 | 20.41503 | 35034 ft | 453 kts | 308° |
| 2026-05-05 19:45 | 42.80928 | 20.34895 | 35042 ft | 453 kts | 308° |
| 2026-05-05 19:45 | 42.85422 | 20.28868 | 35046 ft | 455 kts | 318° |
| 2026-05-05 19:46 | 42.90374 | 20.23455 | 35044 ft | 456 kts | 319° |
| 2026-05-05 19:46 | 42.95366 | 20.18186 | 35052 ft | 457 kts | 320° |
| 2026-05-05 19:47 | 43.00398 | 20.12878 | 35033 ft | 457 kts | 319° |
| 2026-05-05 19:47 | 43.05431 | 20.07539 | 35039 ft | 457 kts | 319° |
| 2026-05-05 19:48 | 43.10465 | 20.02171 | 35051 ft | 457 kts | 319° |
| 2026-05-05 19:48 | 43.15446 | 19.96844 | 35031 ft | 458 kts | 319° |
| 2026-05-05 19:49 | 43.20463 | 19.91469 | 35053 ft | 458 kts | 319° |
| 2026-05-05 19:49 | 43.25490 | 19.86072 | 35040 ft | 458 kts | 319° |
| 2026-05-05 19:50 | 43.30512 | 19.80672 | 35041 ft | 458 kts | 319° |
| 2026-05-05 19:50 | 43.35530 | 19.75261 | 35034 ft | 459 kts | 319° |
| 2026-05-05 19:51 | 43.40555 | 19.69830 | 35041 ft | 459 kts | 319° |
| 2026-05-05 19:51 | 43.45549 | 19.64424 | 35042 ft | 460 kts | 319° |
| 2026-05-05 19:52 | 43.50579 | 19.58967 | 35044 ft | 460 kts | 319° |
| 2026-05-05 19:52 | 43.55637 | 19.53466 | 35034 ft | 460 kts | 319° |
| 2026-05-05 19:53 | 43.60656 | 19.47994 | 35040 ft | 460 kts | 319° |
| 2026-05-05 19:53 | 43.65639 | 19.42553 | 35036 ft | 460 kts | 319° |
| 2026-05-05 19:54 | 43.70654 | 19.37061 | 35040 ft | 460 kts | 318° |
| 2026-05-05 19:54 | 43.75670 | 19.31557 | 35040 ft | 461 kts | 318° |
| 2026-05-05 19:55 | 43.80705 | 19.26024 | 35041 ft | 462 kts | 318° |
| 2026-05-05 19:55 | 43.85739 | 19.20476 | 35031 ft | 461 kts | 318° |
| 2026-05-05 19:56 | 43.90753 | 19.14945 | 35048 ft | 461 kts | 318° |
| 2026-05-05 19:56 | 43.95768 | 19.09390 | 35037 ft | 463 kts | 318° |
| 2026-05-05 19:57 | 44.00787 | 19.03816 | 35032 ft | 464 kts | 318° |
| 2026-05-05 19:57 | 44.05830 | 18.98209 | 35032 ft | 465 kts | 318° |
| 2026-05-05 19:58 | 44.10897 | 18.92562 | 35027 ft | 466 kts | 318° |
| 2026-05-05 19:58 | 44.15957 | 18.86913 | 35028 ft | 466 kts | 318° |
| 2026-05-05 19:59 | 44.21024 | 18.81241 | 35032 ft | 467 kts | 318° |
| 2026-05-05 19:59 | 44.26090 | 18.75558 | 35021 ft | 468 kts | 318° |
| 2026-05-05 20:00 | 44.31161 | 18.69857 | 34997 ft | 468 kts | 318° |
| 2026-05-05 20:00 | 44.36232 | 18.64141 | 34995 ft | 468 kts | 318° |
| 2026-05-05 20:01 | 44.41270 | 18.58450 | 34993 ft | 469 kts | 317° |
| 2026-05-05 20:01 | 44.46339 | 18.52712 | 35000 ft | 469 kts | 317° |
| 2026-05-05 20:02 | 44.51401 | 18.46968 | 34993 ft | 468 kts | 317° |
| 2026-05-05 20:02 | 44.56457 | 18.41218 | 34993 ft | 467 kts | 317° |
| 2026-05-05 20:03 | 44.61507 | 18.35459 | 34985 ft | 468 kts | 317° |
| 2026-05-05 20:03 | 44.66554 | 18.29689 | 34986 ft | 468 kts | 317° |
| 2026-05-05 20:04 | 44.71614 | 18.23893 | 34984 ft | 469 kts | 317° |
| 2026-05-05 20:04 | 44.76675 | 18.18084 | 34987 ft | 470 kts | 317° |
| 2026-05-05 20:05 | 44.81738 | 18.12259 | 34985 ft | 470 kts | 317° |
| 2026-05-05 20:05 | 44.86801 | 18.06417 | 34982 ft | 471 kts | 317° |
| 2026-05-05 20:06 | 44.91879 | 18.00545 | 34978 ft | 472 kts | 317° |
| 2026-05-05 20:06 | 44.96965 | 17.94652 | 34980 ft | 472 kts | 317° |
| 2026-05-05 20:07 | 45.02013 | 17.88790 | 34974 ft | 472 kts | 317° |
| 2026-05-05 20:07 | 45.07094 | 17.82882 | 34975 ft | 473 kts | 317° |
| 2026-05-05 20:08 | 45.12202 | 17.76979 | 34976 ft | 474 kts | 317° |
| 2026-05-05 20:08 | 45.17323 | 17.71056 | 34977 ft | 475 kts | 317° |
| 2026-05-05 20:09 | 45.22445 | 17.65113 | 34979 ft | 476 kts | 317° |
| 2026-05-05 20:09 | 45.27570 | 17.59149 | 34982 ft | 476 kts | 317° |
| 2026-05-05 20:10 | 45.32695 | 17.53166 | 34977 ft | 477 kts | 317° |
| 2026-05-05 20:10 | 45.37801 | 17.47193 | 34974 ft | 478 kts | 317° |
| 2026-05-05 20:11 | 45.42938 | 17.41170 | 34975 ft | 479 kts | 317° |
| 2026-05-05 20:11 | 45.48083 | 17.35121 | 34967 ft | 479 kts | 317° |
| 2026-05-05 20:12 | 45.53227 | 17.29057 | 34980 ft | 480 kts | 317° |
| 2026-05-05 20:12 | 45.58383 | 17.22965 | 34962 ft | 481 kts | 317° |
| 2026-05-05 20:13 | 45.63538 | 17.16861 | 34980 ft | 482 kts | 317° |
| 2026-05-05 20:13 | 45.68663 | 17.10778 | 34966 ft | 482 kts | 317° |
| 2026-05-05 20:14 | 45.73817 | 17.04644 | 34969 ft | 482 kts | 317° |
| 2026-05-05 20:14 | 45.78979 | 16.98483 | 34960 ft | 482 kts | 317° |
| 2026-05-05 20:15 | 45.84131 | 16.92321 | 34963 ft | 483 kts | 317° |
| 2026-05-05 20:15 | 45.88420 | 16.87179 | 34959 ft | 483 kts | 317° |
| 2026-05-05 20:16 | 45.93573 | 16.80987 | 34966 ft | 483 kts | 316° |
| 2026-05-05 20:16 | 45.98735 | 16.74768 | 34954 ft | 484 kts | 316° |
| 2026-05-05 20:17 | 46.03902 | 16.68528 | 34948 ft | 485 kts | 316° |
| 2026-05-05 20:17 | 46.09069 | 16.62272 | 34947 ft | 485 kts | 316° |
| 2026-05-05 20:18 | 46.14232 | 16.56006 | 34944 ft | 485 kts | 316° |
| 2026-05-05 20:18 | 46.19371 | 16.49751 | 34948 ft | 486 kts | 316° |
| 2026-05-05 20:19 | 46.24545 | 16.43439 | 34935 ft | 487 kts | 316° |
| 2026-05-05 20:19 | 46.29727 | 16.37101 | 34932 ft | 488 kts | 316° |
| 2026-05-05 20:20 | 46.34903 | 16.30755 | 34927 ft | 488 kts | 316° |
| 2026-05-05 20:20 | 46.40112 | 16.24420 | 34921 ft | 489 kts | 318° |
| 2026-05-05 20:21 | 46.45501 | 16.18384 | 34920 ft | 490 kts | 319° |
| 2026-05-05 20:21 | 46.50936 | 16.12410 | 34911 ft | 490 kts | 319° |
| 2026-05-05 20:22 | 46.56308 | 16.06424 | 34911 ft | 490 kts | 319° |
| 2026-05-05 20:22 | 46.61695 | 16.00353 | 34902 ft | 490 kts | 319° |
| 2026-05-05 20:23 | 46.67077 | 15.94255 | 34905 ft | 490 kts | 319° |
| 2026-05-05 20:23 | 46.72457 | 15.88146 | 34900 ft | 490 kts | 318° |
| 2026-05-05 20:24 | 46.77840 | 15.82019 | 34898 ft | 490 kts | 318° |
| 2026-05-05 20:24 | 46.83180 | 15.75927 | 34886 ft | 490 kts | 318° |
| 2026-05-05 20:25 | 46.88554 | 15.69782 | 34887 ft | 490 kts | 318° |
| 2026-05-05 20:25 | 46.93932 | 15.63614 | 34895 ft | 491 kts | 318° |
| 2026-05-05 20:26 | 46.99318 | 15.57420 | 34883 ft | 492 kts | 318° |
| 2026-05-05 20:26 | 47.04697 | 15.51221 | 34884 ft | 492 kts | 318° |
| 2026-05-05 20:27 | 47.10033 | 15.45054 | 34885 ft | 492 kts | 318° |
| 2026-05-05 20:27 | 47.15412 | 15.38820 | 34881 ft | 492 kts | 318° |
| 2026-05-05 20:28 | 47.20789 | 15.32571 | 34879 ft | 493 kts | 318° |
| 2026-05-05 20:28 | 47.26169 | 15.26304 | 34877 ft | 494 kts | 318° |
| 2026-05-05 20:29 | 47.31552 | 15.20015 | 34874 ft | 493 kts | 318° |
| 2026-05-05 20:29 | 47.36931 | 15.13716 | 34873 ft | 494 kts | 317° |
| 2026-05-05 20:30 | 47.42310 | 15.07396 | 34869 ft | 495 kts | 318° |
| 2026-05-05 20:30 | 47.47701 | 15.01046 | 34866 ft | 495 kts | 317° |
| 2026-05-05 20:31 | 47.53087 | 14.94687 | 34868 ft | 495 kts | 317° |
| 2026-05-05 20:31 | 47.58465 | 14.88321 | 34858 ft | 495 kts | 317° |
| 2026-05-05 20:32 | 47.63838 | 14.81942 | 34856 ft | 495 kts | 317° |
| 2026-05-05 20:32 | 47.69190 | 14.75571 | 34846 ft | 496 kts | 317° |
| 2026-05-05 20:33 | 47.74573 | 14.69146 | 34836 ft | 497 kts | 317° |
| 2026-05-05 20:33 | 47.79972 | 14.62683 | 34827 ft | 497 kts | 317° |
| 2026-05-05 20:34 | 47.85321 | 14.56263 | 34824 ft | 497 kts | 317° |
| 2026-05-05 20:34 | 47.90705 | 14.49784 | 34825 ft | 497 kts | 317° |
| 2026-05-05 20:35 | 47.96090 | 14.43285 | 34826 ft | 498 kts | 317° |
| 2026-05-05 20:35 | 48.01465 | 14.36780 | 34804 ft | 498 kts | 317° |
| 2026-05-05 20:36 | 48.06855 | 14.30239 | 34800 ft | 499 kts | 317° |
| 2026-05-05 20:36 | 48.12242 | 14.23684 | 34798 ft | 499 kts | 317° |
| 2026-05-05 20:37 | 48.17595 | 14.17152 | 34804 ft | 500 kts | 316° |
| 2026-05-05 20:37 | 48.22993 | 14.10545 | 34801 ft | 501 kts | 316° |
| 2026-05-05 20:38 | 48.28392 | 14.03919 | 34810 ft | 501 kts | 316° |
| 2026-05-05 20:38 | 48.33789 | 13.97278 | 34807 ft | 501 kts | 316° |
| 2026-05-05 20:39 | 48.39175 | 13.90635 | 34810 ft | 501 kts | 316° |
| 2026-05-05 20:39 | 48.44536 | 13.84004 | 34816 ft | 502 kts | 315° |
| 2026-05-05 20:40 | 48.49971 | 13.77254 | 34816 ft | 504 kts | 316° |
| 2026-05-05 20:40 | 48.55375 | 13.70524 | 34815 ft | 504 kts | 315° |
| 2026-05-05 20:41 | 48.60747 | 13.63820 | 34817 ft | 504 kts | 315° |
| 2026-05-05 20:41 | 48.65943 | 13.56737 | 34833 ft | 500 kts | 307° |
| 2026-05-05 20:42 | 48.70580 | 13.48878 | 34821 ft | 500 kts | 306° |
| 2026-05-05 20:42 | 48.75107 | 13.40866 | 34815 ft | 500 kts | 305° |
| 2026-05-05 20:43 | 48.79617 | 13.32816 | 34819 ft | 501 kts | 305° |
| 2026-05-05 20:43 | 48.84110 | 13.24802 | 34818 ft | 501 kts | 305° |
| 2026-05-05 20:44 | 48.88639 | 13.16720 | 34831 ft | 503 kts | 304° |
| 2026-05-05 20:44 | 48.93168 | 13.08615 | 34813 ft | 503 kts | 304° |
| 2026-05-05 20:45 | 48.99957 | 12.96427 | 34809 ft | 504 kts | 304° |
| 2026-05-05 20:45 | 49.04489 | 12.88255 | 34825 ft | 504 kts | 304° |
| 2026-05-05 20:46 | 49.09008 | 12.80079 | 34803 ft | 504 kts | 304° |
| 2026-05-05 20:46 | 49.13529 | 12.71877 | 34820 ft | 504 kts | 304° |
| 2026-05-05 20:47 | 49.18015 | 12.63714 | 34828 ft | 505 kts | 304° |
| 2026-05-05 20:47 | 49.22528 | 12.55477 | 34807 ft | 505 kts | 304° |
| 2026-05-05 20:48 | 49.27033 | 12.47223 | 34824 ft | 506 kts | 304° |
| 2026-05-05 20:48 | 49.31550 | 12.38923 | 34812 ft | 507 kts | 305° |
| 2026-05-05 20:49 | 49.36068 | 12.30595 | 34814 ft | 508 kts | 305° |
| 2026-05-05 20:49 | 49.40582 | 12.22249 | 34812 ft | 509 kts | 304° |
| 2026-05-05 20:50 | 49.45066 | 12.13933 | 34840 ft | 509 kts | 305° |
| 2026-05-05 20:50 | 49.49595 | 12.05507 | 34811 ft | 511 kts | 305° |
| 2026-05-05 20:51 | 49.54121 | 11.97063 | 34811 ft | 511 kts | 304° |
| 2026-05-05 20:51 | 49.58638 | 11.88606 | 34812 ft | 511 kts | 305° |
| 2026-05-05 20:52 | 49.63151 | 11.80124 | 34813 ft | 512 kts | 305° |
| 2026-05-05 20:52 | 49.67645 | 11.71653 | 34814 ft | 514 kts | 305° |
| 2026-05-05 20:53 | 49.72172 | 11.63093 | 34814 ft | 515 kts | 305° |
| 2026-05-05 20:53 | 49.76703 | 11.54500 | 34811 ft | 515 kts | 305° |
| 2026-05-05 20:54 | 49.81224 | 11.45897 | 34812 ft | 515 kts | 305° |
| 2026-05-05 20:54 | 49.85718 | 11.37318 | 34828 ft | 516 kts | 306° |
| 2026-05-05 20:55 | 49.90237 | 11.28658 | 34815 ft | 517 kts | 306° |
| 2026-05-05 20:55 | 49.94759 | 11.19967 | 34817 ft | 517 kts | 306° |
| 2026-05-05 20:56 | 49.99272 | 11.11264 | 34813 ft | 517 kts | 306° |
| 2026-05-05 20:56 | 50.03784 | 11.02536 | 34811 ft | 518 kts | 306° |
| 2026-05-05 20:57 | 50.08300 | 10.93769 | 34820 ft | 519 kts | 306° |
| 2026-05-05 20:57 | 50.12819 | 10.84968 | 34812 ft | 519 kts | 306° |
| 2026-05-05 20:58 | 50.17323 | 10.76166 | 34816 ft | 520 kts | 306° |
| 2026-05-05 20:58 | 50.21800 | 10.67388 | 34811 ft | 520 kts | 306° |
| 2026-05-05 20:59 | 50.26298 | 10.58536 | 34808 ft | 521 kts | 306° |
| 2026-05-05 20:59 | 50.30803 | 10.49642 | 34812 ft | 522 kts | 306° |
| 2026-05-05 21:00 | 50.35303 | 10.40724 | 34811 ft | 522 kts | 306° |
| 2026-05-05 21:00 | 50.39800 | 10.31786 | 34816 ft | 523 kts | 305° |
| 2026-05-05 21:01 | 50.44295 | 10.22823 | 34809 ft | 523 kts | 305° |
| 2026-05-05 21:01 | 50.48804 | 10.13799 | 34817 ft | 524 kts | 305° |
| 2026-05-05 21:02 | 50.53304 | 10.04761 | 34819 ft | 525 kts | 305° |
| 2026-05-05 21:02 | 50.57042 | 9.97233 | 34813 ft | 525 kts | 305° |
| 2026-05-05 21:03 | 50.61529 | 9.88166 | 34814 ft | 525 kts | 305° |
| 2026-05-05 21:03 | 50.66735 | 9.77602 | 34818 ft | 526 kts | 305° |
| 2026-05-05 21:04 | 50.70465 | 9.70007 | 34812 ft | 526 kts | 305° |
| 2026-05-05 21:04 | 50.74941 | 9.60867 | 34814 ft | 526 kts | 305° |
| 2026-05-05 21:05 | 50.79411 | 9.51707 | 34809 ft | 526 kts | 304° |
| 2026-05-05 21:05 | 50.83877 | 9.42519 | 34809 ft | 526 kts | 304° |
| 2026-05-05 21:06 | 50.88330 | 9.33329 | 34817 ft | 527 kts | 304° |
| 2026-05-05 21:06 | 50.92787 | 9.24099 | 34822 ft | 526 kts | 304° |
| 2026-05-05 21:07 | 50.97226 | 9.14871 | 34825 ft | 526 kts | 304° |
| 2026-05-05 21:07 | 51.01659 | 9.05624 | 34817 ft | 526 kts | 304° |
| 2026-05-05 21:08 | 51.06090 | 8.96346 | 34820 ft | 527 kts | 304° |
| 2026-05-05 21:08 | 51.10514 | 8.87050 | 34817 ft | 527 kts | 304° |
| 2026-05-05 21:09 | 51.14913 | 8.77821 | 34808 ft | 527 kts | 305° |
| 2026-05-05 21:09 | 51.19510 | 8.68702 | 34809 ft | 527 kts | 306° |
| 2026-05-05 21:10 | 51.24153 | 8.59627 | 34815 ft | 528 kts | 306° |
| 2026-05-05 21:10 | 51.28770 | 8.50510 | 34807 ft | 527 kts | 306° |
| 2026-05-05 21:11 | 51.33541 | 8.41612 | 34820 ft | 528 kts | 311° |
| 2026-05-05 21:11 | 51.38737 | 8.33269 | 34815 ft | 529 kts | 313° |
| 2026-05-05 21:12 | 51.43976 | 8.25060 | 34821 ft | 529 kts | 313° |
| 2026-05-05 21:12 | 51.49244 | 8.16808 | 34829 ft | 529 kts | 313° |
| 2026-05-05 21:13 | 51.54494 | 8.08538 | 34828 ft | 528 kts | 312° |
| 2026-05-05 21:13 | 51.59726 | 8.00254 | 34828 ft | 528 kts | 312° |
| 2026-05-05 21:14 | 51.64947 | 7.91949 | 34832 ft | 528 kts | 312° |
| 2026-05-05 21:14 | 51.70168 | 7.83618 | 34701 ft | 528 kts | 312° |
| 2026-05-05 21:15 | 51.72784 | 7.79437 | 34448 ft | 531 kts | 312° |
| 2026-05-05 21:15 | 51.75379 | 7.75282 | 34115 ft | 532 kts | 312° |
| 2026-05-05 21:15 | 51.78006 | 7.71070 | 33749 ft | 533 kts | 312° |
| 2026-05-05 21:15 | 51.80639 | 7.66841 | 33347 ft | 534 kts | 311° |
| 2026-05-05 21:16 | 51.83266 | 7.62617 | 33063 ft | 531 kts | 311° |
| 2026-05-05 21:16 | 51.85879 | 7.58405 | 32584 ft | 531 kts | 312° |
| 2026-05-05 21:16 | 51.88503 | 7.54166 | 32080 ft | 532 kts | 312° |
| 2026-05-05 21:16 | 51.91120 | 7.49933 | 31604 ft | 533 kts | 312° |
| 2026-05-05 21:17 | 51.93742 | 7.45684 | 31098 ft | 533 kts | 312° |
| 2026-05-05 21:17 | 51.96368 | 7.41423 | 30640 ft | 534 kts | 312° |
| 2026-05-05 21:17 | 51.98994 | 7.37155 | 30166 ft | 534 kts | 312° |
| 2026-05-05 21:17 | 52.01619 | 7.32884 | 29671 ft | 533 kts | 312° |
| 2026-05-05 21:18 | 52.04228 | 7.28633 | 29123 ft | 530 kts | 312° |
| 2026-05-05 21:18 | 52.06820 | 7.24403 | 28577 ft | 525 kts | 312° |
| 2026-05-05 21:18 | 52.09383 | 7.20214 | 28060 ft | 519 kts | 312° |
| 2026-05-05 21:18 | 52.11912 | 7.16069 | 27529 ft | 514 kts | 312° |
| 2026-05-05 21:19 | 52.14385 | 7.11894 | 27001 ft | 509 kts | 308° |
| 2026-05-05 21:19 | 52.16635 | 7.07493 | 26497 ft | 503 kts | 306° |
| 2026-05-05 21:19 | 52.18823 | 7.03072 | 25989 ft | 499 kts | 306° |
| 2026-05-05 21:19 | 52.20956 | 6.98706 | 25499 ft | 495 kts | 306° |
| 2026-05-05 21:20 | 52.23096 | 6.94338 | 25006 ft | 491 kts | 307° |
| 2026-05-05 21:20 | 52.25260 | 6.90042 | 24534 ft | 488 kts | 307° |
| 2026-05-05 21:20 | 52.27410 | 6.85780 | 24080 ft | 484 kts | 307° |
| 2026-05-05 21:20 | 52.29539 | 6.81541 | 23620 ft | 481 kts | 307° |
| 2026-05-05 21:21 | 52.31647 | 6.77328 | 23131 ft | 477 kts | 307° |
| 2026-05-05 21:21 | 52.33736 | 6.73142 | 22598 ft | 473 kts | 307° |
| 2026-05-05 21:21 | 52.35806 | 6.68991 | 22102 ft | 468 kts | 307° |
| 2026-05-05 21:21 | 52.37852 | 6.64864 | 21578 ft | 464 kts | 307° |
| 2026-05-05 21:22 | 52.39881 | 6.60764 | 21047 ft | 462 kts | 307° |
| 2026-05-05 21:22 | 52.41896 | 6.56682 | 20563 ft | 459 kts | 307° |
| 2026-05-05 21:22 | 52.43889 | 6.52640 | 20080 ft | 455 kts | 308° |
| 2026-05-05 21:22 | 52.45761 | 6.48492 | 19574 ft | 450 kts | 297° |
| 2026-05-05 21:23 | 52.46921 | 6.43791 | 19108 ft | 443 kts | 281° |
| 2026-05-05 21:23 | 52.47338 | 6.38817 | 18628 ft | 439 kts | 273° |
| 2026-05-05 21:23 | 52.47559 | 6.33820 | 18158 ft | 439 kts | 273° |
| 2026-05-05 21:23 | 52.47767 | 6.28899 | 17642 ft | 437 kts | 273° |
| 2026-05-05 21:24 | 52.47991 | 6.23883 | 17136 ft | 433 kts | 274° |
| 2026-05-05 21:24 | 52.48219 | 6.18975 | 16639 ft | 430 kts | 274° |
| 2026-05-05 21:24 | 52.48445 | 6.14164 | 16125 ft | 427 kts | 274° |
| 2026-05-05 21:24 | 52.48675 | 6.09317 | 15646 ft | 424 kts | 274° |
| 2026-05-05 21:25 | 52.48902 | 6.04515 | 15172 ft | 421 kts | 274° |
| 2026-05-05 21:25 | 52.49130 | 5.99741 | 14688 ft | 417 kts | 274° |
| 2026-05-05 21:25 | 52.49353 | 5.95023 | 14300 ft | 412 kts | 274° |
| 2026-05-05 21:25 | 52.49569 | 5.90372 | 13885 ft | 406 kts | 274° |
| 2026-05-05 21:26 | 52.49780 | 5.85771 | 13358 ft | 402 kts | 274° |
| 2026-05-05 21:26 | 52.49989 | 5.81221 | 12835 ft | 398 kts | 274° |
| 2026-05-05 21:26 | 52.50194 | 5.76714 | 12321 ft | 394 kts | 274° |
| 2026-05-05 21:26 | 52.50393 | 5.72290 | 11810 ft | 392 kts | 274° |
| 2026-05-05 21:27 | 52.50592 | 5.67840 | 11307 ft | 389 kts | 274° |
| 2026-05-05 21:27 | 52.50789 | 5.63407 | 10807 ft | 386 kts | 274° |
| 2026-05-05 21:27 | 52.50929 | 5.59033 | 10320 ft | 382 kts | 267° |
| 2026-05-05 21:27 | 52.50349 | 5.54822 | 9823 ft | 378 kts | 245° |
| 2026-05-05 21:28 | 52.48971 | 5.51248 | 9313 ft | 374 kts | 232° |
| 2026-05-05 21:28 | 52.47362 | 5.47861 | 8787 ft | 370 kts | 232° |
| 2026-05-05 21:28 | 52.45819 | 5.44584 | 8278 ft | 366 kts | 232° |
| 2026-05-05 21:28 | 52.44309 | 5.41288 | 7951 ft | 357 kts | 233° |
| 2026-05-05 21:29 | 52.42867 | 5.38092 | 7912 ft | 340 kts | 233° |
| 2026-05-05 21:29 | 52.41491 | 5.35017 | 7913 ft | 333 kts | 233° |
| 2026-05-05 21:29 | 52.40130 | 5.31961 | 7911 ft | 332 kts | 233° |
| 2026-05-05 21:29 | 52.38775 | 5.28905 | 7682 ft | 331 kts | 233° |
| 2026-05-05 21:30 | 52.37429 | 5.25863 | 7215 ft | 329 kts | 234° |
| 2026-05-05 21:30 | 52.36093 | 5.22841 | 6729 ft | 327 kts | 234° |
| 2026-05-05 21:30 | 52.34763 | 5.19835 | 6237 ft | 326 kts | 234° |
| 2026-05-05 21:30 | 52.33437 | 5.16841 | 5723 ft | 324 kts | 234° |
| 2026-05-05 21:31 | 52.32116 | 5.13858 | 5226 ft | 322 kts | 234° |
| 2026-05-05 21:31 | 52.30819 | 5.10935 | 4997 ft | 313 kts | 234° |
| 2026-05-05 21:31 | 52.29543 | 5.08064 | 4955 ft | 312 kts | 234° |
| 2026-05-05 21:31 | 52.28302 | 5.05272 | 4913 ft | 295 kts | 233° |
| 2026-05-05 21:32 | 52.27117 | 5.02609 | 4668 ft | 286 kts | 233° |
| 2026-05-05 21:32 | 52.25960 | 5.00009 | 4306 ft | 281 kts | 233° |
| 2026-05-05 21:32 | 52.24824 | 4.97454 | 4011 ft | 277 kts | 233° |
| 2026-05-05 21:32 | 52.23686 | 4.94900 | 3964 ft | 278 kts | 233° |
| 2026-05-05 21:33 | 52.22542 | 4.92340 | 3964 ft | 280 kts | 233° |
| 2026-05-05 21:33 | 52.21392 | 4.89770 | 3980 ft | 281 kts | 234° |
| 2026-05-05 21:33 | 52.20158 | 4.87291 | 3959 ft | 282 kts | 221° |
| 2026-05-05 21:33 | 52.18478 | 4.85760 | 3963 ft | 278 kts | 192° |
| 2026-05-05 21:34 | 52.16582 | 4.85611 | 3969 ft | 271 kts | 168° |
| 2026-05-05 21:34 | 52.14737 | 4.86232 | 3970 ft | 272 kts | 162° |
| 2026-05-05 21:34 | 52.12902 | 4.86990 | 3967 ft | 273 kts | 162° |
| 2026-05-05 21:34 | 52.11082 | 4.87844 | 3968 ft | 271 kts | 153° |
| 2026-05-05 21:35 | 52.09436 | 4.89280 | 3972 ft | 268 kts | 143° |
| 2026-05-05 21:35 | 52.07758 | 4.90647 | 3961 ft | 273 kts | 161° |
| 2026-05-05 21:35 | 52.05896 | 4.90823 | 3955 ft | 269 kts | 189° |
| 2026-05-05 21:35 | 52.04205 | 4.89686 | 3955 ft | 268 kts | 216° |
| 2026-05-05 21:36 | 52.02983 | 4.87445 | 3952 ft | 266 kts | 244° |
| 2026-05-05 21:36 | 52.02500 | 4.84583 | 3961 ft | 263 kts | 271° |
| 2026-05-05 21:36 | 52.02835 | 4.81712 | 3982 ft | 258 kts | 294° |
| 2026-05-05 21:36 | 52.03625 | 4.79117 | 3961 ft | 256 kts | 304° |
| 2026-05-05 21:37 | 52.04822 | 4.77050 | 3960 ft | 249 kts | 330° |
| 2026-05-05 21:37 | 52.06398 | 4.75974 | 3968 ft | 245 kts | 349° |
| 2026-05-05 21:37 | 52.08072 | 4.75732 | 3964 ft | 239 kts | 4° |
| 2026-05-05 21:37 | 52.09696 | 4.75952 | 3910 ft | 228 kts | 6° |
| 2026-05-05 21:38 | 52.11251 | 4.76134 | 3648 ft | 220 kts | 4° |
| 2026-05-05 21:38 | 52.12749 | 4.76242 | 3320 ft | 212 kts | 4° |
| 2026-05-05 21:38 | 52.14198 | 4.76369 | 3035 ft | 204 kts | 5° |
| 2026-05-05 21:38 | 52.15567 | 4.76498 | 2738 ft | 196 kts | 5° |
| 2026-05-05 21:39 | 52.16909 | 4.76618 | 2459 ft | 191 kts | 5° |
| 2026-05-05 21:39 | 52.18219 | 4.76736 | 2200 ft | 185 kts | 5° |
| 2026-05-05 21:39 | 52.19464 | 4.76848 | 1921 ft | 172 kts | 6° |
| 2026-05-05 21:39 | 52.20628 | 4.76955 | 1708 ft | 165 kts | 6° |
| 2026-05-05 21:40 | 52.21774 | 4.77064 | 1473 ft | 165 kts | 5° |
| 2026-05-05 21:40 | 52.22926 | 4.77198 | 1203 ft | 166 kts | 4° |
| 2026-05-05 21:40 | 52.24070 | 4.77253 | 948 ft | 163 kts | 1° |
| 2026-05-05 21:40 | 52.25189 | 4.77365 | 674 ft | 161 kts | 7° |
| 2026-05-05 21:41 | 52.26326 | 4.77500 | 503 ft | 167 kts | 1° |
| 2026-05-05 21:41 | 52.27485 | 4.77586 | 330 ft | 165 kts | 1° |
| 2026-05-05 21:41 | 52.28611 | 4.77695 | 125 ft | 160 kts | 2° |
| 2026-05-05 21:41 | 52.29702 | 4.77795 | 2 ft | 154 kts | 2° |
| 2026-05-05 21:42 | 52.30595 | 4.77877 | 6 ft | 90 kts | 3° |
| 2026-05-05 21:42 | 52.31002 | 4.77910 | -2 ft | 46 kts | 3° |
| 2026-05-05 21:42 | 52.31254 | 4.77932 | 5 ft | 23 kts | 3° |
| 2026-05-05 21:42 | 52.31321 | 4.77826 | 5 ft | 11 kts | 242° |
| 2026-05-05 21:43 | 52.31284 | 4.77705 | 3 ft | 13 kts | 252° |
| 2026-05-05 21:43 | 52.31283 | 4.77547 | 3 ft | 15 kts | 273° |
| 2026-05-05 21:43 | 52.31289 | 4.77363 | 3 ft | 17 kts | 273° |
| 2026-05-05 21:43 | 52.31293 | 4.77156 | 3 ft | 18 kts | 262° |
| 2026-05-05 21:44 | 52.31236 | 4.77035 | 3 ft | 11 kts | 217° |
| 2026-05-05 21:44 | 52.31199 | 4.76992 | 3 ft | 0 kts | 213° |
| 2026-05-05 21:44 | 52.31199 | 4.76991 | 3 ft | 0 kts | 213° |
| 2026-05-05 21:44 | 52.31197 | 4.76989 | 3 ft | 2 kts | 216° |
| 2026-05-05 21:45 | 52.31186 | 4.76954 | 3 ft | 5 kts | 253° |
| 2026-05-05 21:45 | 52.31198 | 4.76884 | 3 ft | 2 kts | 301° |
| 2026-05-05 21:45 | 52.31205 | 4.76865 | 3 ft | 2 kts | 300° |
| 2026-05-05 21:45 | 52.31208 | 4.76857 | 3 ft | 1 kts | 301° |
| 2026-05-05 21:46 | 52.31211 | 4.76849 | 3 ft | 0 kts | 301° |